Data Archive--August, 2005

Date Time Heat Index Current Temp Wind Chill High Temp Low Temp Humidity Dew Point Wind Speed Gust Wind Direction Rain Barometer
08/01/2005 12:00 a 67.8 67.8 67.8 67.9 67.6 92 65.4 0.0 0.0 --- 0.00 30.018
08/01/2005 12:10 a 67.6 67.6 67.6 67.7 67.5 93 65.5 0.0 0.0 --- 0.00 30.018
08/01/2005 12:20 a 67.5 67.5 67.5 67.5 67.4 94 65.7 0.0 0.0 --- 0.00 30.023
08/01/2005 12:30 a 67.3 67.3 67.3 67.4 67.3 94 65.5 0.0 0.0 --- 0.00 30.023
08/01/2005 12:40 a 67.3 67.3 67.3 67.3 67.2 94 65.5 0.0 0.0 --- 0.00 30.027
08/01/2005 12:50 a 67.3 67.3 67.3 67.4 67.3 94 65.5 0.0 0.0 --- 0.00 30.023
08/01/2005 1:00 a 67.3 67.3 67.3 67.4 67.2 94 65.5 0.0 0.0 --- 0.00 30.021
08/01/2005 1:10 a 67.1 67.1 67.1 67.3 67.0 94 65.3 0.0 0.0 --- 0.00 30.019
08/01/2005 1:20 a 67.0 67.0 67.0 67.1 66.9 94 65.2 0.0 0.0 --- 0.00 30.018
08/01/2005 1:30 a 66.8 66.8 66.8 66.9 66.7 94 65.0 0.0 0.0 --- 0.00 30.022
08/01/2005 1:40 a 66.7 66.7 66.7 66.8 66.6 94 64.9 0.0 0.0 --- 0.00 30.026
08/01/2005 1:50 a 66.6 66.6 66.6 66.6 66.5 94 64.8 0.0 0.0 --- 0.00 30.025
08/01/2005 2:00 a 66.5 66.5 66.5 66.5 66.4 94 64.7 0.0 0.0 --- 0.00 30.023
08/01/2005 2:10 a 66.4 66.4 66.4 66.5 66.4 94 64.6 0.0 0.0 --- 0.00 30.025
08/01/2005 2:20 a 66.4 66.4 66.4 66.5 66.4 94 64.6 0.0 0.0 --- 0.00 30.027
08/01/2005 2:30 a 66.4 66.4 66.4 66.5 66.4 94 64.6 0.0 0.0 --- 0.00 30.025
08/01/2005 2:40 a 66.4 66.4 66.4 66.5 66.4 94 64.6 0.0 0.0 --- 0.00 30.024
08/01/2005 2:50 a 66.4 66.4 66.4 66.5 66.4 95 64.9 0.0 0.0 --- 0.00 30.022
08/01/2005 3:00 a 66.5 66.5 66.5 66.6 66.4 95 65.0 0.0 0.0 --- 0.00 30.021
08/01/2005 3:10 a 66.5 66.5 66.5 66.6 66.5 95 65.0 0.0 0.0 --- 0.00 30.022
08/01/2005 3:20 a 66.5 66.5 66.5 66.5 66.4 95 65.0 0.0 0.0 --- 0.00 30.021
08/01/2005 3:30 a 66.4 66.4 66.4 66.5 66.4 94 64.6 0.0 0.0 --- 0.00 30.022
08/01/2005 3:40 a 66.4 66.4 66.4 66.4 66.3 95 64.9 0.0 0.0 --- 0.00 30.015
08/01/2005 3:50 a 66.4 66.4 66.4 66.5 66.3 95 64.9 0.0 0.0 --- 0.00 30.012
08/01/2005 4:00 a 66.5 66.5 66.5 66.5 66.4 95 65.0 0.0 0.0 --- 0.00 30.007
08/01/2005 4:10 a 66.5 66.5 66.5 66.5 66.5 95 65.0 0.0 0.0 --- 0.00 30.005
08/01/2005 4:20 a 66.5 66.5 66.5 66.6 66.5 96 65.3 0.0 0.0 --- 0.00 30.001
08/01/2005 4:30 a 66.6 66.6 66.6 66.6 66.5 95 65.1 0.0 0.0 --- 0.00 30.001
08/01/2005 4:40 a 66.5 66.5 66.5 66.6 66.5 96 65.3 0.0 0.0 --- 0.00 30.005
08/01/2005 4:50 a 66.7 66.7 66.7 66.8 66.6 96 65.5 0.0 0.0 --- 0.00 30.009
08/01/2005 5:00 a 66.9 66.9 66.9 67.0 66.8 96 65.7 0.0 0.0 --- 0.00 30.006
08/01/2005 5:10 a 66.9 66.9 66.9 67.0 66.9 96 65.7 0.0 0.0 --- 0.00 30.011
08/01/2005 5:20 a 67.1 67.1 67.1 67.3 67.0 96 65.9 0.0 0.0 --- 0.00 30.017
08/01/2005 5:30 a 67.4 67.4 67.4 67.5 67.3 96 66.2 0.0 0.0 --- 0.00 30.019
08/01/2005 5:40 a 67.5 67.5 67.5 67.6 67.4 96 66.3 0.0 0.0 --- 0.00 30.019
08/01/2005 5:50 a 67.7 67.7 67.7 67.7 67.6 96 66.5 0.0 0.0 --- 0.00 30.026
08/01/2005 6:00 a 67.8 67.8 67.8 67.9 67.7 96 66.6 0.0 0.0 --- 0.00 30.029
08/01/2005 6:10 a 67.9 67.9 67.9 68.0 67.9 95 66.4 0.0 0.0 --- 0.00 30.020
08/01/2005 6:20 a 70.0 68.1 68.1 68.2 68.0 96 66.9 0.0 0.0 --- 0.00 30.020
08/01/2005 6:30 a 70.0 68.2 68.2 68.3 68.1 96 67.0 0.0 0.0 --- 0.00 30.021
08/01/2005 6:40 a 70.0 68.4 68.4 68.6 68.3 96 67.2 0.0 0.0 --- 0.00 30.026
08/01/2005 6:50 a 71.6 68.7 68.7 68.9 68.5 96 67.5 0.0 0.0 --- 0.00 30.028
08/01/2005 7:00 a 71.5 69.0 69.0 69.3 68.8 95 67.5 0.0 0.0 --- 0.00 30.034
08/01/2005 7:10 a 71.5 69.4 69.4 69.6 69.3 95 67.9 0.0 0.0 --- 0.00 30.035
08/01/2005 7:20 a 72.8 69.8 69.8 70.0 69.6 94 68.0 0.0 0.0 --- 0.00 30.037
08/01/2005 7:30 a 72.4 70.1 70.1 70.3 70.0 92 67.7 0.0 0.0 --- 0.00 30.039
08/01/2005 7:40 a 72.2 70.4 70.4 70.5 70.3 91 67.7 0.0 0.0 --- 0.00 30.038
08/01/2005 7:50 a 73.0 70.6 70.6 70.7 70.5 87 66.5 0.0 0.0 --- 0.00 30.040
08/01/2005 8:00 a 73.0 70.8 70.8 71.0 70.7 86 66.4 0.0 0.0 --- 0.00 30.045
08/01/2005 8:10 a 73.0 71.1 71.1 71.2 71.0 83 65.7 0.0 3.0 SE 0.00 30.045
08/01/2005 8:20 a 73.0 71.3 71.3 71.5 71.2 83 65.9 0.0 3.0 SE 0.00 30.039
08/01/2005 8:30 a 74.0 71.6 71.6 71.7 71.5 82 65.8 0.0 0.0 --- 0.00 30.034
08/01/2005 8:40 a 74.0 72.0 72.0 72.3 71.7 82 66.2 0.0 0.0 --- 0.00 30.031
08/01/2005 8:50 a 75.0 72.6 72.6 72.9 72.3 82 66.8 0.0 2.0 SE 0.00 30.021
08/01/2005 9:00 a 75.0 73.3 73.3 73.6 72.9 80 66.8 0.0 2.0 SE 0.00 30.023
08/01/2005 9:10 a 76.0 73.7 73.7 73.9 73.6 80 67.2 0.0 1.0 SE 0.00 30.023
08/01/2005 9:20 a 76.0 74.0 74.0 74.0 73.9 80 67.4 0.0 0.0 --- 0.00 30.027
08/01/2005 9:30 a 76.0 74.1 74.1 74.3 74.0 78 66.8 0.0 0.0 --- 0.00 30.020
08/01/2005 9:40 a 76.0 74.4 74.4 74.6 74.2 78 67.1 0.0 1.0 SSW 0.00 30.017
08/01/2005 9:50 a 77.0 74.7 74.7 74.9 74.5 79 67.8 0.0 1.0 S 0.00 30.014
08/01/2005 10:00 a 77.0 75.1 75.1 75.4 74.9 78 67.8 0.0 2.0 NE 0.00 30.015
08/01/2005 10:10 a 78.5 75.7 75.7 76.1 75.4 75 67.2 0.0 2.0 NE 0.00 30.014
08/01/2005 10:20 a 78.5 76.3 76.3 76.6 76.1 75 67.8 0.0 1.0 NE 0.00 30.015
08/01/2005 10:30 a 79.8 76.8 76.8 77.1 76.6 74 67.9 0.0 3.0 NE 0.00 30.013
08/01/2005 10:40 a 79.6 77.2 77.2 77.3 77.1 73 67.9 0.0 1.0 E 0.00 30.012
08/01/2005 10:50 a 80.6 77.5 77.5 77.6 77.3 73 68.2 0.0 2.0 E 0.00 30.006
08/01/2005 11:00 a 80.8 77.7 77.7 77.8 77.6 74 68.8 0.0 2.0 E 0.00 30.003
08/01/2005 11:10 a 80.4 77.9 77.9 78.1 77.8 72 68.2 0.0 2.0 E 0.00 30.000
08/01/2005 11:20 a 80.4 78.4 78.4 78.7 78.1 72 68.6 0.0 2.0 WSW 0.00 29.997
08/01/2005 11:30 a 81.0 79.2 79.2 79.7 78.7 68 67.7 0.0 2.0 SSE 0.00 29.997
08/01/2005 11:40 a 82.7 79.9 79.9 80.1 79.7 67 68.0 0.0 2.0 SSE 0.00 29.995
08/01/2005 11:50 a 82.7 80.3 80.3 80.7 80.1 67 68.4 0.0 1.0 ENE 0.00 29.992
08/01/2005 12:00 p 84.2 80.9 80.9 81.2 80.7 66 68.5 0.0 0.0 --- 0.00 29.983
08/01/2005 12:10 p 84.2 81.3 81.3 81.5 81.2 66 68.9 0.0 0.0 --- 0.00 29.978
08/01/2005 12:20 p 85.2 81.9 81.9 82.3 81.5 64 68.5 0.0 1.0 ENE 0.00 29.979
08/01/2005 12:30 p 85.2 82.2 82.2 82.3 82.1 64 68.8 0.0 2.0 ENE 0.00 29.972
08/01/2005 12:40 p 86.2 82.5 82.5 82.9 82.1 63 68.6 0.0 2.0 ENE 0.00 29.968
08/01/2005 12:50 p 85.8 82.8 82.8 82.9 82.7 62 68.5 0.0 1.0 NE 0.00 29.968
08/01/2005 1:00 p 86.2 83.3 83.3 83.6 82.9 63 69.4 0.0 3.0 ESE 0.00 29.969
08/01/2005 1:10 p 87.0 83.5 83.5 83.6 83.4 60 68.2 0.0 2.0 ESE 0.00 29.966
08/01/2005 1:20 p 87.8 83.9 83.9 84.4 83.6 62 69.5 0.0 3.0 ESE 0.00 29.959
08/01/2005 1:30 p 89.0 84.8 84.8 85.0 84.4 60 69.4 0.0 3.0 E 0.00 29.956
08/01/2005 1:40 p 89.0 85.2 85.2 85.3 85.0 60 69.8 0.0 2.0 ESE 0.00 29.950
08/01/2005 1:50 p 88.8 85.2 85.2 85.3 85.1 59 69.3 0.0 2.0 ESE 0.00 29.950
08/01/2005 2:00 p 89.4 84.9 84.9 85.1 84.8 61 70.0 0.0 2.0 ESE 0.00 29.945
08/01/2005 2:10 p 89.0 85.0 85.0 85.1 84.8 60 69.6 0.0 1.0 SE 0.00 29.942
08/01/2005 2:20 p 89.0 84.7 84.7 85.0 84.4 60 69.3 0.0 3.0 S 0.00 29.939
08/01/2005 2:30 p 87.0 84.4 84.4 84.6 84.3 60 69.0 0.0 3.0 SSE 0.00 29.930
08/01/2005 2:40 p 88.8 84.7 84.7 84.9 84.6 59 68.8 0.0 2.0 SE 0.00 29.930
08/01/2005 2:50 p 89.0 85.1 85.1 85.4 84.9 60 69.7 0.0 2.0 NE 0.00 29.925
08/01/2005 3:00 p 90.7 85.5 85.5 85.6 85.4 59 69.5 0.0 1.0 NE 0.00 29.920
08/01/2005 3:10 p 90.7 85.5 85.5 85.6 85.5 59 69.5 0.0 3.0 E 0.00 29.920
08/01/2005 3:20 p 89.0 85.2 85.2 85.5 85.0 60 69.8 0.0 0.0 --- 0.00 29.915
08/01/2005 3:30 p 89.4 85.0 85.0 85.1 85.0 61 70.1 0.0 1.0 E 0.00 29.911
08/01/2005 3:40 p 89.0 85.0 85.0 85.0 84.9 60 69.6 0.0 2.0 S 0.00 29.910
08/01/2005 3:50 p 89.4 84.9 84.9 84.9 84.8 61 70.0 0.0 4.0 SE 0.00 29.907
08/01/2005 4:00 p 90.2 84.7 84.7 84.8 84.6 63 70.7 0.0 0.0 --- 0.00 29.903
08/01/2005 4:10 p 88.2 84.4 84.4 84.6 84.3 63 70.4 0.0 2.0 SE 0.00 29.898
08/01/2005 4:20 p 89.4 84.5 84.5 84.6 84.4 61 69.6 0.0 3.0 SE 0.00 29.893
08/01/2005 4:30 p 89.4 84.6 84.6 84.6 84.5 61 69.7 0.0 1.0 SE 0.00 29.888
08/01/2005 4:40 p 89.4 84.5 84.5 84.6 84.4 61 69.6 0.0 2.0 SE 0.00 29.885
08/01/2005 4:50 p 87.4 84.4 84.4 84.5 84.3 61 69.5 0.0 1.0 SE 0.00 29.883
08/01/2005 5:00 p 88.2 84.1 84.1 84.3 84.0 63 70.2 0.0 2.0 SE 0.00 29.878
08/01/2005 5:10 p 88.2 84.0 84.0 84.0 84.0 63 70.1 0.0 2.0 N 0.00 29.884
08/01/2005 5:20 p 88.2 84.0 84.0 84.0 83.9 63 70.1 0.0 0.0 --- 0.00 29.880
08/01/2005 5:30 p 87.8 83.7 83.7 83.9 83.5 62 69.3 0.0 0.0 --- 0.00 29.881
08/01/2005 5:40 p 88.2 83.5 83.5 83.5 83.4 63 69.6 0.0 1.0 N 0.00 29.878
08/01/2005 5:50 p 86.2 83.4 83.4 83.5 83.3 63 69.5 0.0 1.0 N 0.00 29.880
08/01/2005 6:00 p 86.6 83.2 83.2 83.3 83.2 64 69.8 0.0 0.0 --- 0.00 29.882
08/01/2005 6:10 p 86.6 83.1 83.1 83.2 82.9 64 69.7 0.0 0.0 --- 0.00 29.883
08/01/2005 6:20 p 86.6 82.8 82.8 83.0 82.6 64 69.4 0.0 1.0 N 0.00 29.884
08/01/2005 6:30 p 86.6 82.5 82.5 82.6 82.4 64 69.1 0.0 0.0 --- 0.00 29.886
08/01/2005 6:40 p 85.5 82.4 82.4 82.4 82.3 65 69.5 0.0 0.0 --- 0.00 29.886
08/01/2005 6:50 p 85.8 82.2 82.2 82.3 82.0 66 69.7 0.0 0.0 --- 0.00 29.885
08/01/2005 7:00 p 85.8 81.8 81.8 82.0 81.6 66 69.3 0.0 0.0 --- 0.00 29.895
08/01/2005 7:10 p 85.8 81.5 81.5 81.7 81.3 66 69.1 0.0 0.0 --- 0.00 29.894
08/01/2005 7:20 p 84.4 81.2 81.2 81.4 81.0 67 69.2 0.0 0.0 --- 0.00 29.894
08/01/2005 7:30 p 84.6 80.9 80.9 81.1 80.7 68 69.4 0.0 0.0 --- 0.00 29.897
08/01/2005 7:40 p 84.8 80.5 80.5 80.7 80.3 69 69.4 0.0 0.0 --- 0.00 29.889
08/01/2005 7:50 p 82.9 80.1 80.1 80.3 79.9 69 69.0 0.0 0.0 --- 0.00 29.888
08/01/2005 8:00 p 83.0 79.7 79.7 79.9 79.5 70 69.1 0.0 0.0 --- 0.00 29.889
08/01/2005 8:10 p 81.2 79.4 79.4 79.5 79.2 71 69.2 0.0 0.0 --- 0.00 29.886
08/01/2005 8:20 p 81.2 79.0 79.0 79.2 78.9 71 68.8 0.0 0.0 --- 0.00 29.884
08/01/2005 8:30 p 81.4 78.7 78.7 78.8 78.6 72 68.9 0.0 0.0 --- 0.00 29.884
08/01/2005 8:40 p 81.4 78.5 78.5 78.6 78.3 72 68.7 0.0 0.0 --- 0.00 29.886
08/01/2005 8:50 p 80.6 78.2 78.2 78.3 78.0 73 68.8 0.0 0.0 --- 0.00 29.885
08/01/2005 9:00 p 80.8 77.9 77.9 78.0 77.7 74 69.0 0.0 0.0 --- 0.00 29.886
08/01/2005 9:10 p 80.8 77.6 77.6 77.7 77.4 74 68.7 0.0 0.0 --- 0.00 29.885
08/01/2005 9:20 p 80.0 77.3 77.3 77.4 77.2 75 68.8 0.0 0.0 --- 0.00 29.888
08/01/2005 9:30 p 80.2 77.0 77.0 77.2 76.9 76 68.9 0.0 0.0 --- 0.00 29.891
08/01/2005 9:40 p 80.2 76.7 76.7 76.9 76.6 76 68.6 0.0 0.0 --- 0.00 29.892
08/01/2005 9:50 p 78.7 76.4 76.4 76.6 76.3 77 68.7 0.0 0.0 --- 0.00 29.891
08/01/2005 10:00 p 78.9 76.1 76.1 76.3 75.8 79 69.1 0.0 0.0 --- 0.00 29.882
08/01/2005 10:10 p 79.0 75.5 75.5 75.8 75.2 80 68.9 0.0 0.0 --- 0.00 29.878
08/01/2005 10:20 p 77.1 75.0 75.0 75.2 74.7 81 68.8 0.0 0.0 --- 0.00 29.872
08/01/2005 10:30 p 77.2 74.5 74.5 74.7 74.3 82 68.6 0.0 0.0 --- 0.00 29.870
08/01/2005 10:40 p 76.0 74.3 74.3 74.3 74.2 83 68.8 0.0 0.0 --- 0.00 29.870
08/01/2005 10:50 p 76.0 74.1 74.1 74.2 74.0 83 68.6 0.0 0.0 --- 0.00 29.868
08/01/2005 11:00 p 76.0 74.0 74.0 74.1 73.9 83 68.5 0.0 0.0 --- 0.00 29.870
08/01/2005 11:10 p 76.0 73.9 73.9 73.9 73.8 84 68.8 0.0 0.0 --- 0.00 29.873
08/01/2005 11:20 p 76.0 73.8 73.8 73.9 73.7 84 68.7 0.0 0.0 --- 0.00 29.871
08/01/2005 11:30 p 76.0 73.5 73.5 73.7 73.4 85 68.7 0.0 0.0 --- 0.00 29.875
08/01/2005 11:40 p 75.0 73.3 73.3 73.4 73.2 85 68.5 0.0 0.0 --- 0.00 29.873
08/01/2005 11:50 p 75.0 73.2 73.2 73.2 73.1 86 68.8 0.0 0.0 --- 0.00 29.874
08/02/2005 12:00 a 75.0 73.0 73.0 73.1 72.9 86 68.6 0.0 0.0 --- 0.00 29.875
08/02/2005 12:10 a 75.0 72.8 72.8 72.9 72.7 86 68.4 0.0 0.0 --- 0.00 29.875
08/02/2005 12:20 a 75.0 72.6 72.6 72.7 72.6 87 68.5 0.0 0.0 --- 0.00 29.876
08/02/2005 12:30 a 75.0 72.5 72.5 72.6 72.5 87 68.4 0.0 0.0 --- 0.00 29.874
08/02/2005 12:40 a 74.0 72.4 72.4 72.5 72.4 87 68.3 0.0 0.0 --- 0.00 29.869
08/02/2005 12:50 a 74.0 72.3 72.3 72.4 72.3 88 68.6 0.0 0.0 --- 0.00 29.865
08/02/2005 1:00 a 74.0 72.2 72.2 72.3 72.2 88 68.5 0.0 0.0 --- 0.00 29.865
08/02/2005 1:10 a 74.0 72.2 72.2 72.2 72.1 88 68.5 0.0 0.0 --- 0.00 29.862
08/02/2005 1:20 a 74.0 72.1 72.1 72.2 72.1 88 68.4 0.0 0.0 --- 0.00 29.860
08/02/2005 1:30 a 74.0 72.0 72.0 72.1 72.0 89 68.6 0.0 0.0 --- 0.00 29.858
08/02/2005 1:40 a 74.0 72.0 72.0 72.0 72.0 89 68.6 0.0 0.0 --- 0.00 29.856
08/02/2005 1:50 a 74.0 71.9 71.9 72.0 71.9 89 68.5 0.0 0.0 --- 0.00 29.857
08/02/2005 2:00 a 74.0 71.9 71.9 72.0 71.9 89 68.5 0.0 0.0 --- 0.00 29.855
08/02/2005 2:10 a 74.0 72.0 72.0 72.0 71.9 89 68.6 0.0 0.0 --- 0.00 29.853
08/02/2005 2:20 a 74.0 71.9 71.9 72.0 71.8 89 68.5 0.0 0.0 --- 0.00 29.850
08/02/2005 2:30 a 74.0 71.8 71.8 71.8 71.7 90 68.7 0.0 0.0 --- 0.00 29.846
08/02/2005 2:40 a 74.0 71.6 71.6 71.7 71.5 90 68.5 0.0 0.0 --- 0.00 29.843
08/02/2005 2:50 a 74.0 71.5 71.5 71.5 71.4 90 68.4 0.0 0.0 --- 0.00 29.843
08/02/2005 3:00 a 73.0 71.4 71.4 71.4 71.4 90 68.3 0.0 0.0 --- 0.00 29.840
08/02/2005 3:10 a 73.2 71.4 71.4 71.4 71.3 91 68.6 0.0 0.0 --- 0.00 29.839
08/02/2005 3:20 a 73.2 71.2 71.2 71.3 71.1 91 68.4 0.0 0.0 --- 0.00 29.839
08/02/2005 3:30 a 73.2 71.1 71.1 71.2 71.1 91 68.3 0.0 0.0 --- 0.00 29.844
08/02/2005 3:40 a 73.2 71.1 71.1 71.1 71.0 91 68.3 0.0 0.0 --- 0.00 29.843
08/02/2005 3:50 a 73.2 71.0 71.0 71.1 70.9 91 68.2 0.0 0.0 --- 0.00 29.844
08/02/2005 4:00 a 73.4 70.8 70.8 70.9 70.7 92 68.4 0.0 0.0 --- 0.00 29.841
08/02/2005 4:10 a 73.4 70.6 70.6 70.8 70.6 92 68.2 0.0 0.0 --- 0.00 29.842
08/02/2005 4:20 a 73.4 70.5 70.5 70.6 70.4 92 68.1 0.0 0.0 --- 0.00 29.844
08/02/2005 4:30 a 72.6 70.4 70.4 70.4 70.3 93 68.3 0.0 0.0 --- 0.00 29.843
08/02/2005 4:40 a 72.6 70.2 70.2 70.3 70.1 93 68.1 0.0 0.0 --- 0.00 29.840
08/02/2005 4:50 a 72.6 70.1 70.1 70.2 70.0 93 68.0 0.0 0.0 --- 0.00 29.841
08/02/2005 5:00 a 72.8 70.0 70.0 70.0 69.9 94 68.2 0.0 0.0 --- 0.00 29.844
08/02/2005 5:10 a 72.8 69.8 69.8 69.9 69.8 94 68.0 0.0 0.0 --- 0.00 29.847
08/02/2005 5:20 a 72.8 69.7 69.7 69.8 69.7 94 67.9 0.0 0.0 --- 0.00 29.847
08/02/2005 5:30 a 72.8 69.6 69.6 69.7 69.6 94 67.8 0.0 0.0 --- 0.00 29.850
08/02/2005 5:40 a 72.8 69.5 69.5 69.6 69.4 94 67.7 0.0 0.0 --- 0.00 29.849
08/02/2005 5:50 a 71.4 69.4 69.4 69.5 69.4 94 67.6 0.0 0.0 --- 0.00 29.851
08/02/2005 6:00 a 71.4 69.4 69.4 69.4 69.3 94 67.6 0.0 0.0 --- 0.00 29.852
08/02/2005 6:10 a 71.4 69.4 69.4 69.4 69.3 94 67.6 0.0 0.0 --- 0.00 29.855
08/02/2005 6:20 a 73.0 69.5 69.5 69.7 69.4 95 68.0 0.0 0.0 --- 0.00 29.858
08/02/2005 6:30 a 73.0 69.8 69.8 70.0 69.7 95 68.3 0.0 0.0 --- 0.00 29.858
08/02/2005 6:40 a 72.8 70.2 70.2 70.4 70.0 94 68.4 0.0 0.0 --- 0.00 29.862
08/02/2005 6:50 a 73.8 70.6 70.6 70.8 70.4 94 68.8 0.0 0.0 --- 0.00 29.862
08/02/2005 7:00 a 73.6 71.0 71.0 71.3 70.8 93 68.9 0.0 0.0 --- 0.00 29.861
08/02/2005 7:10 a 74.6 71.5 71.5 71.8 71.3 93 69.4 0.0 0.0 --- 0.00 29.864
08/02/2005 7:20 a 74.4 72.1 72.1 72.4 71.8 92 69.7 0.0 0.0 --- 0.00 29.863
08/02/2005 7:30 a 75.0 72.7 72.7 73.1 72.4 90 69.6 0.0 0.0 --- 0.00 29.865
08/02/2005 7:40 a 75.0 73.3 73.3 73.6 73.1 89 69.9 0.0 0.0 --- 0.00 29.867
08/02/2005 7:50 a 76.0 73.9 73.9 74.1 73.6 89 70.5 0.0 0.0 --- 0.00 29.870
08/02/2005 8:00 a 76.0 74.4 74.4 74.7 74.1 88 70.6 0.0 0.0 --- 0.00 29.867
08/02/2005 8:10 a 77.7 75.1 75.1 75.4 74.7 87 71.0 0.0 0.0 --- 0.00 29.870
08/02/2005 8:20 a 79.5 75.7 75.7 76.2 75.4 85 70.9 0.0 1.0 N 0.00 29.871
08/02/2005 8:30 a 81.0 76.5 76.5 77.0 76.2 83 71.0 0.0 0.0 --- 0.00 29.867
08/02/2005 8:40 a 82.1 77.5 77.5 78.1 77.0 81 71.2 0.0 1.0 N 0.00 29.865
08/02/2005 8:50 a 82.4 78.6 78.6 79.1 78.1 77 70.8 0.0 1.0 N 0.00 29.864
08/02/2005 9:00 a 83.8 79.6 79.6 80.0 79.1 74 70.6 0.0 0.0 --- 0.00 29.867
08/02/2005 9:10 a 83.6 80.2 80.2 80.5 80.0 73 70.8 0.0 3.0 N 0.00 29.861
08/02/2005 9:20 a 85.2 80.8 80.8 81.2 80.5 71 70.5 0.0 2.0 ESE 0.00 29.860
08/02/2005 9:30 a 87.0 81.5 81.5 81.9 81.2 70 70.8 0.0 2.0 ENE 0.00 29.861
08/02/2005 9:40 a 86.7 82.2 82.2 82.6 81.9 69 71.0 0.0 2.0 ENE 0.00 29.862
08/02/2005 9:50 a 86.2 83.0 83.0 83.5 82.6 63 69.1 1.0 4.0 ESE 0.00 29.858
08/02/2005 10:00 a 87.4 83.8 83.8 84.1 83.4 61 68.9 1.0 4.0 ESE 0.00 29.862
08/02/2005 10:10 a 87.4 84.3 84.3 84.6 84.1 61 69.4 0.0 6.0 SE 0.00 29.862
08/02/2005 10:20 a 89.0 84.7 84.7 84.9 84.6 60 69.3 0.0 2.0 ESE 0.00 29.863
08/02/2005 10:30 a 88.8 85.1 85.1 85.2 84.9 59 69.2 0.0 4.0 ESE 0.00 29.857
08/02/2005 10:40 a 88.6 85.4 85.4 85.6 85.2 58 69.0 1.0 5.0 SE 0.00 29.858
08/02/2005 10:50 a 90.1 86.0 86.0 86.2 85.6 57 69.0 1.0 4.0 SE 0.00 29.857
08/02/2005 11:00 a 89.8 86.2 86.2 86.2 86.1 56 68.7 1.0 5.0 SE 0.00 29.858
08/02/2005 11:10 a 90.1 86.3 86.3 86.5 86.2 57 69.3 0.0 3.0 SE 0.00 29.857
08/02/2005 11:20 a 91.8 86.6 86.6 86.7 86.4 56 69.0 0.0 3.0 SE 0.00 29.853
08/02/2005 11:30 a 92.1 86.8 86.8 86.9 86.7 57 69.8 0.0 4.0 SE 0.00 29.849
08/02/2005 11:40 a 91.8 86.9 86.9 87.0 86.8 56 69.3 0.0 3.0 ESE 0.00 29.846
08/02/2005 11:50 a 91.8 87.0 87.0 87.1 86.9 56 69.4 0.0 3.0 ESE 0.00 29.842
08/02/2005 12:00 p 91.5 87.2 87.2 87.4 87.1 55 69.1 0.0 2.0 ESE 0.00 29.839
08/02/2005 12:10 p 92.3 87.7 87.7 87.8 87.4 51 67.3 0.0 3.0 ESE 0.00 29.836
08/02/2005 12:20 p 92.6 87.9 87.9 88.3 87.6 52 68.1 0.0 4.0 SSE 0.00 29.830
08/02/2005 12:30 p 94.0 88.9 88.9 89.3 88.3 50 67.9 0.0 3.0 SE 0.00 29.829
08/02/2005 12:40 p 93.8 89.5 89.5 89.7 89.3 46 66.0 0.0 3.0 SE 0.00 29.824
08/02/2005 12:50 p 93.2 89.9 89.9 90.1 89.8 44 65.1 1.0 5.0 ESE 0.00 29.817
08/02/2005 1:00 p 93.8 90.1 90.1 90.3 89.9 46 66.5 1.0 3.0 SE 0.00 29.820
08/02/2005 1:10 p 94.8 90.7 90.7 91.1 90.3 46 67.1 0.0 3.0 E 0.00 29.816
08/02/2005 1:20 p 93.9 91.3 91.3 91.5 91.2 43 65.7 0.0 4.0 ESE 0.00 29.816
08/02/2005 1:30 p 95.6 91.8 91.8 92.1 91.5 44 66.8 0.0 4.0 ESE 0.00 29.812
08/02/2005 1:40 p 94.4 92.2 92.2 92.4 92.0 41 65.1 0.0 2.0 SSE 0.00 29.807
08/02/2005 1:50 p 96.4 92.6 92.6 92.7 92.4 41 65.5 0.0 5.0 SSE 0.00 29.803
08/02/2005 2:00 p 96.8 92.7 92.7 92.8 92.5 42 66.3 0.0 6.0 SE 0.00 29.805
08/02/2005 2:10 p 94.0 92.3 92.3 92.5 91.9 40 64.5 1.0 5.0 SE 0.00 29.802
08/02/2005 2:20 p 94.4 92.0 92.0 92.2 91.9 41 64.9 0.0 2.0 SSE 0.00 29.800
08/02/2005 2:30 p 94.4 92.2 92.2 92.4 91.9 41 65.1 1.0 4.0 SE 0.00 29.797
08/02/2005 2:40 p 94.0 91.8 91.8 91.9 91.8 40 64.1 0.0 5.0 SE 0.00 29.792
08/02/2005 2:50 p 93.6 91.9 91.9 92.0 91.8 38 62.7 1.0 4.0 SE 0.00 29.791
08/02/2005 3:00 p 93.8 91.7 91.7 92.0 91.7 39 63.3 1.0 3.0 SE 0.00 29.791
08/02/2005 3:10 p 93.8 91.6 91.6 91.7 91.5 39 63.2 0.0 5.0 ESE 0.00 29.785
08/02/2005 3:20 p 93.6 91.6 91.6 91.8 91.6 38 62.4 2.0 5.0 ESE 0.00 29.784
08/02/2005 3:30 p 93.4 92.2 92.2 92.5 91.8 37 62.2 0.0 2.0 SSW 0.00 29.781
08/02/2005 3:40 p 93.8 92.4 92.4 92.4 92.4 39 63.9 0.0 3.0 SE 0.00 29.778
08/02/2005 3:50 p 96.0 92.5 92.5 92.6 92.4 40 64.7 0.0 4.0 SE 0.00 29.776
08/02/2005 4:00 p 93.4 92.3 92.3 92.6 92.2 37 62.3 0.0 3.0 SE 0.00 29.778
08/02/2005 4:10 p 93.4 92.3 92.3 92.4 92.1 37 62.3 1.0 4.0 SE 0.00 29.778
08/02/2005 4:20 p 93.6 91.7 91.7 92.1 91.2 38 62.5 0.0 3.0 SE 0.00 29.776
08/02/2005 4:30 p 93.3 90.9 90.9 91.2 90.7 41 64.0 1.0 4.0 SE 0.00 29.779
08/02/2005 4:40 p 92.4 90.5 90.5 90.7 90.4 37 60.7 1.0 3.0 SE 0.00 29.769
08/02/2005 4:50 p 92.6 90.7 90.7 90.9 90.5 38 61.6 0.0 3.0 SE 0.00 29.773
08/02/2005 5:00 p 92.8 91.0 91.0 91.1 90.9 39 62.6 0.0 2.0 SE 0.00 29.774
08/02/2005 5:10 p 92.4 91.2 91.2 91.2 91.1 37 61.3 0.0 4.0 SE 0.00 29.770
08/02/2005 5:20 p 92.4 91.2 91.2 91.2 91.1 37 61.3 1.0 5.0 ESE 0.00 29.768
08/02/2005 5:30 p 92.4 91.1 91.1 91.1 91.0 37 61.2 1.0 5.0 SE 0.00 29.768
08/02/2005 5:40 p 92.6 91.0 91.0 91.1 90.9 38 61.9 1.0 4.0 SE 0.00 29.770
08/02/2005 5:50 p 92.6 90.9 90.9 91.0 90.8 38 61.8 1.0 5.0 ESE 0.00 29.764
08/02/2005 6:00 p 92.8 90.7 90.7 90.8 90.6 39 62.4 0.0 3.0 SE 0.00 29.764
08/02/2005 6:10 p 93.0 90.6 90.6 90.7 90.5 40 63.0 0.0 2.0 SE 0.00 29.771
08/02/2005 6:20 p 91.4 90.4 90.4 90.5 90.3 38 61.4 1.0 5.0 SE 0.00 29.769
08/02/2005 6:30 p 91.4 90.2 90.2 90.3 90.0 38 61.2 1.0 4.0 ESE 0.00 29.768
08/02/2005 6:40 p 92.0 89.8 89.8 90.1 89.3 40 62.3 0.0 2.0 ESE 0.00 29.768
08/02/2005 6:50 p 90.8 89.0 89.0 89.3 88.6 42 63.0 0.0 2.0 ESE 0.00 29.770
08/02/2005 7:00 p 90.0 88.1 88.1 88.6 87.5 45 64.1 0.0 0.0 --- 0.00 29.769
08/02/2005 7:10 p 89.4 86.7 86.7 87.5 85.7 48 64.7 0.0 0.0 --- 0.00 29.770
08/02/2005 7:20 p 87.2 84.8 84.8 85.7 84.1 51 64.7 0.0 0.0 --- 0.00 29.773
08/02/2005 7:30 p 86.3 83.6 83.6 84.1 83.0 53 64.7 0.0 0.0 --- 0.00 29.773
08/02/2005 7:40 p 85.0 82.7 82.7 83.0 82.3 58 66.4 0.0 0.0 --- 0.00 29.776
08/02/2005 7:50 p 83.8 81.8 81.8 82.3 81.4 58 65.6 0.0 0.0 --- 0.00 29.779
08/02/2005 8:00 p 82.8 80.9 80.9 81.4 80.5 59 65.2 0.0 0.0 --- 0.00 29.782
08/02/2005 8:10 p 81.8 80.0 80.0 80.5 79.7 59 64.4 0.0 0.0 --- 0.00 29.782
08/02/2005 8:20 p 81.0 79.4 79.4 79.7 79.2 61 64.8 0.0 0.0 --- 0.00 29.784
08/02/2005 8:30 p 81.0 79.0 79.0 79.2 78.7 63 65.3 0.0 0.0 --- 0.00 29.787
08/02/2005 8:40 p 79.4 78.3 78.3 78.7 78.0 64 65.1 0.0 0.0 --- 0.00 29.789
08/02/2005 8:50 p 79.6 77.8 77.8 78.0 77.5 66 65.5 0.0 0.0 --- 0.00 29.791
08/02/2005 9:00 p 78.4 77.3 77.3 77.5 77.0 67 65.5 0.0 0.0 --- 0.00 29.793
08/02/2005 9:10 p 78.8 76.8 76.8 77.0 76.6 69 65.9 0.0 0.0 --- 0.00 29.793
08/02/2005 9:20 p 78.0 76.4 76.4 76.6 76.2 70 65.9 0.0 0.0 --- 0.00 29.799
08/02/2005 9:30 p 78.1 76.0 76.0 76.3 75.7 71 65.9 0.0 0.0 --- 0.00 29.797
08/02/2005 9:40 p 77.0 75.4 75.4 75.7 75.1 73 66.2 0.0 0.0 --- 0.00 29.795
08/02/2005 9:50 p 77.0 74.7 74.7 75.0 74.4 73 65.5 0.0 0.0 --- 0.00 29.796
08/02/2005 10:00 p 76.0 74.2 74.2 74.4 74.0 75 65.8 0.0 0.0 --- 0.00 29.798
08/02/2005 10:10 p 76.0 74.1 74.1 74.1 74.0 75 65.7 0.0 0.0 --- 0.00 29.801
08/02/2005 10:20 p 76.0 74.0 74.0 74.1 74.0 75 65.6 0.0 0.0 --- 0.00 29.800
08/02/2005 10:30 p 76.0 73.9 73.9 74.0 73.8 76 65.9 0.0 0.0 --- 0.00 29.800
08/02/2005 10:40 p 76.0 73.8 73.8 73.9 73.7 76 65.8 0.0 0.0 --- 0.00 29.802
08/02/2005 10:50 p 76.0 73.6 73.6 73.7 73.5 77 66.0 0.0 0.0 --- 0.00 29.799
08/02/2005 11:00 p 74.7 73.4 73.4 73.5 73.2 77 65.8 0.0 0.0 --- 0.00 29.801
08/02/2005 11:10 p 74.8 73.2 73.2 73.3 73.0 78 65.9 0.0 0.0 --- 0.00 29.803
08/02/2005 11:20 p 74.9 72.8 72.8 73.0 72.6 79 65.9 0.0 0.0 --- 0.00 29.809
08/02/2005 11:30 p 73.8 72.4 72.4 72.6 72.3 79 65.5 0.0 0.0 --- 0.00 29.809
08/02/2005 11:40 p 74.0 72.1 72.1 72.3 72.0 80 65.6 0.0 0.0 --- 0.00 29.808
08/02/2005 11:50 p 74.0 71.9 71.9 72.0 71.7 80 65.4 0.0 0.0 --- 0.00 29.804
08/03/2005 12:00 a 74.0 71.6 71.6 71.7 71.4 81 65.5 0.0 0.0 --- 0.00 29.806
08/03/2005 12:10 a 73.0 71.2 71.2 71.4 70.9 82 65.4 0.0 0.0 --- 0.00 29.808
08/03/2005 12:20 a 73.0 70.7 70.7 71.0 70.6 83 65.3 0.0 0.0 --- 0.00 29.809
08/03/2005 12:30 a 72.0 70.4 70.4 70.6 70.3 83 65.0 0.0 0.0 --- 0.00 29.811
08/03/2005 12:40 a 72.0 70.2 70.2 70.3 70.1 84 65.1 0.0 0.0 --- 0.00 29.807
08/03/2005 12:50 a 72.0 70.0 70.0 70.1 70.0 84 64.9 0.0 0.0 --- 0.00 29.808
08/03/2005 1:00 a 72.0 70.0 70.0 70.0 69.9 84 64.9 0.0 0.0 --- 0.00 29.807
08/03/2005 1:10 a 72.0 69.9 69.9 70.0 69.8 83 64.5 0.0 0.0 --- 0.00 29.805
08/03/2005 1:20 a 72.0 69.7 69.7 69.9 69.6 84 64.7 0.0 0.0 --- 0.00 29.805
08/03/2005 1:30 a 72.0 69.6 69.6 69.7 69.5 85 64.9 0.0 0.0 --- 0.00 29.801
08/03/2005 1:40 a 72.0 69.5 69.5 69.6 69.4 86 65.1 0.0 0.0 --- 0.00 29.803
08/03/2005 1:50 a 71.0 69.4 69.4 69.4 69.4 86 65.0 0.0 0.0 --- 0.00 29.800
08/03/2005 2:00 a 71.0 69.4 69.4 69.4 69.4 85 64.7 0.0 0.0 --- 0.00 29.800
08/03/2005 2:10 a 71.0 69.3 69.3 69.4 69.3 85 64.6 0.0 0.0 --- 0.00 29.796
08/03/2005 2:20 a 71.0 69.3 69.3 69.3 69.2 85 64.6 0.0 0.0 --- 0.00 29.795
08/03/2005 2:30 a 72.0 69.5 69.5 69.7 69.3 84 64.5 0.0 0.0 --- 0.00 29.794
08/03/2005 2:40 a 72.0 70.0 70.0 70.2 69.7 82 64.3 0.0 0.0 --- 0.00 29.794
08/03/2005 2:50 a 72.0 70.4 70.4 70.6 70.2 81 64.3 0.0 0.0 --- 0.00 29.797
08/03/2005 3:00 a 73.0 70.8 70.8 71.0 70.5 81 64.7 0.0 0.0 --- 0.00 29.794
08/03/2005 3:10 a 73.0 70.9 70.9 71.0 70.6 81 64.8 0.0 0.0 --- 0.00 29.791
08/03/2005 3:20 a 73.0 70.5 70.5 70.6 70.3 81 64.4 0.0 0.0 --- 0.00 29.785
08/03/2005 3:30 a 72.0 70.1 70.1 70.3 70.0 82 64.4 0.0 0.0 --- 0.00 29.786
08/03/2005 3:40 a 72.0 69.9 69.9 70.0 69.7 83 64.5 0.0 0.0 --- 0.00 29.789
08/03/2005 3:50 a 72.0 69.6 69.6 69.8 69.5 81 63.5 0.0 0.0 --- 0.00 29.791
08/03/2005 4:00 a 71.0 69.4 69.4 69.5 69.3 83 64.0 0.0 0.0 --- 0.00 29.792
08/03/2005 4:10 a 71.0 69.2 69.2 69.3 69.1 82 63.5 0.0 0.0 --- 0.00 29.791
08/03/2005 4:20 a 71.0 69.1 69.1 69.2 69.0 83 63.7 0.0 0.0 --- 0.00 29.791
08/03/2005 4:30 a 71.0 68.9 68.9 69.0 68.8 83 63.5 0.0 0.0 --- 0.00 29.795
08/03/2005 4:40 a 71.0 68.7 68.7 68.8 68.5 84 63.7 0.0 0.0 --- 0.00 29.796
08/03/2005 4:50 a 70.0 68.4 68.4 68.5 68.2 84 63.4 0.0 0.0 --- 0.00 29.797
08/03/2005 5:00 a 70.0 68.2 68.2 68.3 68.1 85 63.5 0.0 0.0 --- 0.00 29.798
08/03/2005 5:10 a 70.0 68.0 68.0 68.1 68.0 86 63.7 0.0 0.0 --- 0.00 29.802
08/03/2005 5:20 a 67.9 67.9 67.9 68.0 67.7 86 63.6 0.0 0.0 --- 0.00 29.800
08/03/2005 5:30 a 67.6 67.6 67.6 67.7 67.4 87 63.6 0.0 0.0 --- 0.00 29.806
08/03/2005 5:40 a 67.4 67.4 67.4 67.4 67.3 87 63.4 0.0 0.0 --- 0.00 29.807
08/03/2005 5:50 a 67.1 67.1 67.1 67.3 67.0 88 63.4 0.0 0.0 --- 0.00 29.811
08/03/2005 6:00 a 67.0 67.0 67.0 67.1 66.9 88 63.3 0.0 0.0 --- 0.00 29.815
08/03/2005 6:10 a 66.9 66.9 66.9 67.0 66.9 89 63.6 0.0 0.0 --- 0.00 29.820
08/03/2005 6:20 a 67.0 67.0 67.0 67.1 66.9 89 63.7 0.0 0.0 --- 0.00 29.820
08/03/2005 6:30 a 67.1 67.1 67.1 67.3 67.0 89 63.8 0.0 0.0 --- 0.00 29.821
08/03/2005 6:40 a 67.5 67.5 67.5 67.8 67.3 89 64.1 0.0 0.0 --- 0.00 29.826
08/03/2005 6:50 a 70.0 68.1 68.1 68.3 67.8 89 64.7 0.0 0.0 --- 0.00 29.831
08/03/2005 7:00 a 71.0 68.7 68.7 69.3 68.3 88 65.0 0.0 0.0 --- 0.00 29.833
08/03/2005 7:10 a 72.0 70.1 70.1 70.9 69.4 85 65.4 0.0 0.0 --- 0.00 29.833
08/03/2005 7:20 a 73.0 71.4 71.4 72.0 70.9 82 65.6 0.0 0.0 --- 0.00 29.832
08/03/2005 7:30 a 74.7 72.8 72.8 73.6 72.0 77 65.2 0.0 0.0 --- 0.00 29.834
08/03/2005 7:40 a 76.0 74.2 74.2 74.7 73.6 74 65.4 0.0 0.0 --- 0.00 29.837
08/03/2005 7:50 a 77.0 75.1 75.1 75.4 74.8 74 66.3 0.0 0.0 --- 0.00 29.845
08/03/2005 8:00 a 78.1 75.8 75.8 76.2 75.4 71 65.7 0.0 0.0 --- 0.00 29.845
08/03/2005 8:10 a 78.6 76.5 76.5 76.8 76.2 68 65.2 0.0 0.0 --- 0.00 29.841
08/03/2005 8:20 a 78.2 77.3 77.3 77.8 76.8 66 65.1 0.0 0.0 --- 0.00 29.840
08/03/2005 8:30 a 79.5 78.1 78.1 78.5 77.8 65 65.4 0.0 0.0 --- 0.00 29.844
08/03/2005 8:40 a 81.0 79.0 79.0 79.5 78.5 63 65.3 0.0 0.0 --- 0.00 29.840
08/03/2005 8:50 a 82.2 79.7 79.7 79.9 79.5 62 65.5 0.0 0.0 --- 0.00 29.840
08/03/2005 9:00 a 82.3 80.2 80.2 80.4 79.9 63 66.5 0.0 0.0 --- 0.00 29.839
08/03/2005 9:10 a 83.4 80.6 80.6 80.9 80.3 62 66.4 0.0 0.0 --- 0.00 29.841
08/03/2005 9:20 a 83.0 81.2 81.2 81.4 80.9 60 66.0 0.0 0.0 --- 0.00 29.840
08/03/2005 9:30 a 83.9 81.7 81.7 82.0 81.4 59 66.0 0.0 0.0 --- 0.00 29.839
08/03/2005 9:40 a 83.9 82.3 82.3 82.7 82.0 59 66.6 0.0 0.0 --- 0.00 29.841
08/03/2005 9:50 a 85.0 83.1 83.1 83.5 82.7 57 66.3 0.0 0.0 --- 0.00 29.842
08/03/2005 10:00 a 86.4 83.8 83.8 84.0 83.5 54 65.4 0.0 0.0 --- 0.00 29.842
08/03/2005 10:10 a 86.3 84.3 84.3 84.7 84.0 53 65.3 0.0 0.0 --- 0.00 29.838
08/03/2005 10:20 a 87.2 85.0 85.0 85.3 84.7 51 64.9 0.0 0.0 --- 0.00 29.838
08/03/2005 10:30 a 88.0 85.6 85.6 85.9 85.3 50 64.8 0.0 0.0 --- 0.00 29.836
08/03/2005 10:40 a 88.0 86.2 86.2 86.6 85.9 50 65.4 0.0 0.0 --- 0.00 29.835
08/03/2005 10:50 a 89.7 86.9 86.9 87.1 86.6 49 65.5 0.0 0.0 --- 0.00 29.835
08/03/2005 11:00 a 89.7 87.4 87.4 87.6 87.1 49 65.9 0.0 0.0 --- 0.00 29.832
08/03/2005 11:10 a 91.2 87.8 87.8 87.9 87.6 48 65.7 0.0 0.0 --- 0.00 29.830
08/03/2005 11:20 a 90.8 88.2 88.2 88.4 87.9 47 65.4 0.0 0.0 --- 0.00 29.828
08/03/2005 11:30 a 91.6 88.6 88.6 88.8 88.4 44 63.9 0.0 0.0 --- 0.00 29.820
08/03/2005 11:40 a 91.2 88.9 88.9 89.1 88.8 43 63.5 0.0 0.0 --- 0.00 29.828
08/03/2005 11:50 a 90.0 89.2 89.2 89.3 89.1 40 61.7 0.0 0.0 --- 0.00 29.827
08/03/2005 12:00 p 91.1 89.5 89.5 89.8 89.3 37 59.8 0.0 0.0 --- 0.00 29.824
08/03/2005 12:10 p 91.1 90.2 90.2 90.7 89.8 37 60.4 0.0 0.0 --- 0.00 29.820
08/03/2005 12:20 p 92.2 91.2 91.2 91.5 90.7 36 60.5 0.0 0.0 --- 0.00 29.821
08/03/2005 12:30 p 92.8 91.9 91.9 92.4 91.5 34 59.6 0.0 0.0 --- 0.00 29.816
08/03/2005 12:40 p 94.2 92.8 92.8 93.3 92.4 34 60.3 0.0 0.0 --- 0.00 29.810
08/03/2005 12:50 p 93.9 93.4 93.4 93.6 93.3 33 60.0 0.0 0.0 --- 0.00 29.804
08/03/2005 1:00 p 95.2 93.7 93.7 94.0 93.5 33 60.3 0.0 0.0 --- 0.00 29.803
08/03/2005 1:10 p 95.2 94.3 94.3 94.5 94.0 33 60.8 0.0 0.0 --- 0.00 29.800
08/03/2005 1:20 p 96.2 94.8 94.8 95.0 94.5 33 61.2 0.0 0.0 --- 0.00 29.801
08/03/2005 1:30 p 95.4 95.2 95.2 95.4 95.0 31 59.8 0.0 0.0 --- 0.00 29.799
08/03/2005 1:40 p 96.2 95.3 95.3 95.4 95.1 33 61.7 0.0 0.0 --- 0.00 29.797
08/03/2005 1:50 p 96.2 94.8 94.8 95.1 94.7 33 61.2 0.0 0.0 --- 0.00 29.792
08/03/2005 2:00 p 96.2 94.7 94.7 94.9 94.5 33 61.2 0.0 0.0 --- 0.00 29.791
08/03/2005 2:10 p 95.2 94.4 94.4 94.6 94.3 33 60.9 0.0 0.0 --- 0.00 29.788
08/03/2005 2:20 p 95.2 94.3 94.3 94.4 94.2 33 60.8 0.0 0.0 --- 0.00 29.787
08/03/2005 2:30 p 95.2 94.3 94.3 94.4 94.2 33 60.8 0.0 0.0 --- 0.00 29.784
08/03/2005 2:40 p 95.0 94.6 94.6 94.9 94.4 30 58.4 0.0 0.0 --- 0.00 29.783
08/03/2005 2:50 p 94.6 95.2 95.2 95.4 94.9 29 58.0 0.0 0.0 --- 0.00 29.779
08/03/2005 3:00 p 95.0 95.4 95.4 95.4 95.3 30 59.1 0.0 0.0 --- 0.00 29.777
08/03/2005 3:10 p 96.6 95.2 95.2 95.3 95.1 34 62.4 0.0 0.0 --- 0.00 29.773
08/03/2005 3:20 p 95.8 95.0 95.0 95.2 94.9 32 60.5 0.0 0.0 --- 0.00 29.773
08/03/2005 3:30 p 96.6 94.7 94.7 94.9 94.5 34 62.0 0.0 0.0 --- 0.00 29.770
08/03/2005 3:40 p 96.6 94.5 94.5 94.7 94.4 34 61.8 0.0 0.0 --- 0.00 29.769
08/03/2005 3:50 p 96.0 94.4 94.4 94.5 94.3 35 62.6 0.0 0.0 --- 0.00 29.767
08/03/2005 4:00 p 97.8 94.5 94.5 94.5 94.3 37 64.2 0.0 0.0 --- 0.00 29.766
08/03/2005 4:10 p 95.6 94.2 94.2 94.3 94.2 34 61.6 0.0 0.0 --- 0.00 29.764
08/03/2005 4:20 p 96.0 94.1 94.1 94.3 93.8 35 62.3 0.0 0.0 --- 0.00 29.762
08/03/2005 4:30 p 96.4 93.9 93.9 94.0 93.8 36 62.9 0.0 0.0 --- 0.00 29.768
08/03/2005 4:40 p 96.0 94.0 94.0 94.1 93.8 35 62.2 0.0 0.0 --- 0.00 29.769
08/03/2005 4:50 p 94.8 93.2 93.2 93.9 92.7 36 62.3 0.0 0.0 --- 0.00 29.768
08/03/2005 5:00 p 94.8 92.7 92.7 92.8 92.6 36 61.9 0.0 0.0 --- 0.00 29.772
08/03/2005 5:10 p 95.4 92.8 92.8 92.8 92.7 38 63.5 0.0 0.0 --- 0.00 29.771
08/03/2005 5:20 p 94.8 92.6 92.6 92.7 92.5 36 61.8 0.0 0.0 --- 0.00 29.769
08/03/2005 5:30 p 95.1 92.5 92.5 92.6 92.4 37 62.5 0.0 0.0 --- 0.00 29.768
08/03/2005 5:40 p 92.6 92.3 92.3 92.4 92.2 33 59.1 0.0 0.0 --- 0.00 29.766
08/03/2005 5:50 p 92.6 92.2 92.2 92.2 92.1 33 59.0 0.0 0.0 --- 0.00 29.763
08/03/2005 6:00 p 92.4 91.9 91.9 92.1 91.7 32 57.9 0.0 0.0 --- 0.00 29.762
08/03/2005 6:10 p 93.2 91.6 91.6 91.7 91.4 36 60.9 0.0 0.0 --- 0.00 29.766
08/03/2005 6:20 p 92.6 91.1 91.1 91.4 90.8 38 62.0 0.0 0.0 --- 0.00 29.763
08/03/2005 6:30 p 94.2 90.5 90.5 90.9 90.1 44 65.6 0.0 0.0 --- 0.00 29.766
08/03/2005 6:40 p 93.2 89.6 89.6 90.1 89.2 44 64.8 0.0 0.0 --- 0.00 29.773
08/03/2005 6:50 p 92.0 88.7 88.7 89.2 88.2 45 64.6 0.0 0.0 --- 0.00 29.773
08/03/2005 7:00 p 90.4 87.8 87.8 88.2 87.4 46 64.5 0.0 0.0 --- 0.00 29.783
08/03/2005 7:10 p 89.1 87.0 87.0 87.4 86.7 47 64.4 0.0 0.0 --- 0.00 29.782
08/03/2005 7:20 p 87.8 86.4 86.4 86.7 86.1 49 65.0 0.0 0.0 --- 0.00 29.783
08/03/2005 7:30 p 87.8 85.7 85.7 86.0 85.5 49 64.4 0.0 0.0 --- 0.00 29.786
08/03/2005 7:40 p 87.0 85.3 85.3 85.5 85.1 50 64.6 0.0 0.0 --- 0.00 29.786
08/03/2005 7:50 p 87.2 84.9 84.9 85.1 84.7 51 64.8 0.0 0.0 --- 0.00 29.791
08/03/2005 8:00 p 87.8 84.5 84.5 84.7 84.2 54 66.0 0.0 0.0 --- 0.00 29.787
08/03/2005 8:10 p 86.3 83.9 83.9 84.2 83.6 53 65.0 0.0 0.0 --- 0.00 29.791
08/03/2005 8:20 p 85.0 83.2 83.2 83.6 83.0 55 65.4 0.0 0.0 --- 0.00 29.795
08/03/2005 8:30 p 85.0 82.7 82.7 83.0 82.4 58 66.4 0.0 0.0 --- 0.00 29.801
08/03/2005 8:40 p 84.0 81.9 81.9 82.4 81.5 60 66.7 0.0 0.0 --- 0.00 29.807
08/03/2005 8:50 p 83.4 81.2 81.2 81.5 80.9 62 67.0 0.0 0.0 --- 0.00 29.806
08/03/2005 9:00 p 83.4 80.7 80.7 80.9 80.5 62 66.5 0.0 0.0 --- 0.00 29.812
08/03/2005 9:10 p 83.2 80.5 80.5 80.5 80.4 61 65.8 0.0 0.0 --- 0.00 29.813
08/03/2005 9:20 p 82.3 80.3 80.3 80.4 80.3 63 66.6 0.0 0.0 --- 0.00 29.818
08/03/2005 9:30 p 82.2 80.1 80.1 80.3 80.0 62 65.9 0.0 0.0 --- 0.00 29.816
08/03/2005 9:40 p 82.3 79.9 79.9 80.0 79.8 63 66.2 0.0 0.0 --- 0.00 29.823
08/03/2005 9:50 p 82.4 79.7 79.7 79.8 79.6 64 66.5 0.0 0.0 --- 0.00 29.826
08/03/2005 10:00 p 82.6 79.6 79.6 79.7 79.6 66 67.3 0.0 0.0 --- 0.00 29.826
08/03/2005 10:10 p 82.7 79.5 79.5 79.6 79.5 67 67.6 0.0 0.0 --- 0.00 29.823
08/03/2005 10:20 p 82.8 79.5 79.5 79.6 79.5 68 68.0 0.0 0.0 --- 0.00 29.831
08/03/2005 10:30 p 82.9 79.5 79.5 79.6 79.5 69 68.4 0.0 0.0 --- 0.00 29.832
08/03/2005 10:40 p 82.8 79.5 79.5 79.5 79.4 68 68.0 0.0 0.0 --- 0.00 29.833
08/03/2005 10:50 p 81.0 79.4 79.4 79.5 79.3 68 67.9 0.0 0.0 --- 0.00 29.832
08/03/2005 11:00 p 81.0 79.2 79.2 79.3 79.0 69 68.2 0.0 0.0 --- 0.00 29.834
08/03/2005 11:10 p 81.2 78.8 78.8 79.0 78.6 71 68.6 0.0 0.0 --- 0.00 29.837
08/03/2005 11:20 p 80.2 78.4 78.4 78.6 78.3 71 68.2 0.0 0.0 --- 0.00 29.840
08/03/2005 11:30 p 80.6 78.1 78.1 78.3 78.0 73 68.7 0.0 0.0 --- 0.00 29.839
08/03/2005 11:40 p 80.6 77.8 77.8 78.0 77.6 73 68.5 0.0 0.0 --- 0.00 29.840
08/03/2005 11:50 p 79.8 77.4 77.4 77.6 77.3 74 68.5 0.0 0.0 --- 0.00 29.839
08/04/2005 12:00 a 80.0 77.2 77.2 77.3 77.0 75 68.7 0.0 0.0 --- 0.00 29.839
08/04/2005 12:10 a 80.2 76.7 76.7 77.0 76.5 76 68.6 0.0 0.0 --- 0.00 29.843
08/04/2005 12:20 a 78.7 76.3 76.3 76.5 76.2 77 68.6 0.0 0.0 --- 0.00 29.844
08/04/2005 12:30 a 78.7 76.1 76.1 76.2 75.9 77 68.4 0.0 0.0 --- 0.00 29.840
08/04/2005 12:40 a 78.8 75.7 75.7 75.9 75.5 78 68.4 0.0 0.0 --- 0.00 29.839
08/04/2005 12:50 a 77.0 75.4 75.4 75.5 75.2 78 68.1 0.0 0.0 --- 0.00 29.838
08/04/2005 1:00 a 77.0 75.1 75.1 75.2 75.0 79 68.1 0.0 0.0 --- 0.00 29.836
08/04/2005 1:10 a 77.0 74.8 74.8 75.0 74.7 80 68.2 0.0 0.0 --- 0.00 29.841
08/04/2005 1:20 a 77.0 74.5 74.5 74.7 74.3 80 67.9 0.0 0.0 --- 0.00 29.838
08/04/2005 1:30 a 76.0 74.2 74.2 74.3 74.1 81 68.0 0.0 0.0 --- 0.00 29.840
08/04/2005 1:40 a 76.0 74.0 74.0 74.1 73.8 82 68.2 0.0 0.0 --- 0.00 29.839
08/04/2005 1:50 a 76.0 73.7 73.7 73.8 73.6 82 67.9 0.0 0.0 --- 0.00 29.842
08/04/2005 2:00 a 76.0 73.6 73.6 73.6 73.5 83 68.1 0.0 0.0 --- 0.00 29.838
08/04/2005 2:10 a 75.0 73.4 73.4 73.5 73.3 84 68.3 0.0 0.0 --- 0.00 29.838
08/04/2005 2:20 a 75.0 73.2 73.2 73.3 73.2 84 68.1 0.0 0.0 --- 0.00 29.842
08/04/2005 2:30 a 75.0 73.2 73.2 73.2 73.2 84 68.1 0.0 0.0 --- 0.00 29.845
08/04/2005 2:40 a 75.0 73.1 73.1 73.2 73.0 84 68.0 0.0 0.0 --- 0.00 29.846
08/04/2005 2:50 a 75.0 73.0 73.0 73.1 72.9 85 68.2 0.0 0.0 --- 0.00 29.850
08/04/2005 3:00 a 75.0 72.7 72.7 72.9 72.5 85 67.9 0.0 0.0 --- 0.00 29.847
08/04/2005 3:10 a 74.0 72.3 72.3 72.5 72.2 86 67.9 0.0 0.0 --- 0.00 29.853
08/04/2005 3:20 a 74.0 72.1 72.1 72.2 71.8 87 68.0 0.0 0.0 --- 0.00 29.852
08/04/2005 3:30 a 74.0 71.7 71.7 71.8 71.5 87 67.6 0.0 0.0 --- 0.00 29.856
08/04/2005 3:40 a 73.0 71.4 71.4 71.5 71.3 87 67.3 0.0 0.0 --- 0.00 29.857
08/04/2005 3:50 a 73.0 71.3 71.3 71.3 71.2 88 67.6 0.0 0.0 --- 0.00 29.857
08/04/2005 4:00 a 73.0 71.1 71.1 71.2 71.0 88 67.4 0.0 0.0 --- 0.00 29.856
08/04/2005 4:10 a 73.0 70.9 70.9 71.0 70.9 88 67.2 0.0 0.0 --- 0.00 29.856
08/04/2005 4:20 a 73.0 70.8 70.8 70.9 70.7 88 67.1 0.0 0.0 --- 0.00 29.854
08/04/2005 4:30 a 73.0 70.7 70.7 70.7 70.6 88 67.0 0.0 0.0 --- 0.00 29.856
08/04/2005 4:40 a 73.0 70.6 70.6 70.6 70.5 88 66.9 0.0 0.0 --- 0.00 29.858
08/04/2005 4:50 a 73.0 70.5 70.5 70.6 70.4 89 67.1 0.0 0.0 --- 0.00 29.863
08/04/2005 5:00 a 72.0 70.4 70.4 70.4 70.3 89 67.0 0.0 0.0 --- 0.00 29.870
08/04/2005 5:10 a 72.0 70.3 70.3 70.3 70.2 89 66.9 0.0 0.0 --- 0.00 29.870
08/04/2005 5:20 a 72.0 70.2 70.2 70.3 70.1 90 67.1 0.0 0.0 --- 0.00 29.871
08/04/2005 5:30 a 72.2 70.0 70.0 70.1 69.9 91 67.3 0.0 0.0 --- 0.00 29.875
08/04/2005 5:40 a 72.2 70.0 70.0 70.0 69.9 91 67.3 0.0 0.0 --- 0.00 29.878
08/04/2005 5:50 a 72.0 69.9 69.9 70.0 69.9 90 66.8 0.0 0.0 --- 0.00 29.881
08/04/2005 6:00 a 72.2 69.8 69.8 69.9 69.8 91 67.1 0.0 0.0 --- 0.00 29.884
08/04/2005 6:10 a 72.2 69.8 69.8 69.8 69.8 91 67.1 0.0 0.0 --- 0.00 29.885
08/04/2005 6:20 a 72.2 69.8 69.8 69.9 69.8 91 67.1 0.0 0.0 --- 0.00 29.886
08/04/2005 6:30 a 72.2 70.0 70.0 70.1 69.9 91 67.3 0.0 0.0 --- 0.00 29.885
08/04/2005 6:40 a 72.2 70.2 70.2 70.3 70.0 91 67.5 0.0 0.0 --- 0.00 29.889
08/04/2005 6:50 a 73.2 70.5 70.5 70.8 70.3 91 67.8 0.0 0.0 --- 0.00 29.885
08/04/2005 7:00 a 73.2 71.1 71.1 71.6 70.8 91 68.3 0.0 0.0 --- 0.00 29.892
08/04/2005 7:10 a 74.0 72.2 72.2 72.8 71.6 88 68.5 0.0 0.0 --- 0.00 29.896
08/04/2005 7:20 a 75.0 73.3 73.3 73.8 72.8 84 68.2 0.0 0.0 --- 0.00 29.896
08/04/2005 7:30 a 76.0 74.3 74.3 74.9 73.8 81 68.1 0.0 0.0 --- 0.00 29.901
08/04/2005 7:40 a 78.9 75.5 75.5 76.1 74.9 79 68.5 0.0 0.0 --- 0.00 29.899
08/04/2005 7:50 a 79.8 76.9 76.9 77.7 76.1 74 68.0 0.0 0.0 --- 0.00 29.903
08/04/2005 8:00 a 80.4 78.3 78.3 78.8 77.7 72 68.5 0.0 0.0 --- 0.00 29.907
08/04/2005 8:10 a 81.4 79.2 79.2 79.5 78.8 72 69.4 0.0 0.0 --- 0.00 29.905
08/04/2005 8:20 a 83.2 79.8 79.8 80.1 79.5 71 69.6 0.0 0.0 --- 0.00 29.907
08/04/2005 8:30 a 83.2 80.3 80.3 80.6 80.1 71 70.0 0.0 0.0 --- 0.00 29.907
08/04/2005 8:40 a 84.6 80.9 80.9 81.3 80.6 68 69.4 0.0 0.0 --- 0.00 29.905
08/04/2005 8:50 a 86.1 81.6 81.6 81.9 81.3 67 69.6 0.0 0.0 --- 0.00 29.907
08/04/2005 9:00 a 86.7 82.2 82.2 82.5 81.9 69 71.0 0.0 0.0 --- 0.00 29.905
08/04/2005 9:10 a 87.0 82.8 82.8 83.1 82.5 65 69.8 0.0 0.0 --- 0.00 29.906
08/04/2005 9:20 a 86.6 83.4 83.4 83.6 83.1 64 70.0 0.0 0.0 --- 0.00 29.905
08/04/2005 9:30 a 88.6 83.8 83.8 84.1 83.6 64 70.3 0.0 0.0 --- 0.00 29.904
08/04/2005 9:40 a 90.2 84.5 84.5 85.0 84.1 63 70.5 0.0 0.0 --- 0.00 29.909
08/04/2005 9:50 a 89.0 85.2 85.2 85.4 85.0 60 69.8 0.0 0.0 --- 0.00 29.910
08/04/2005 10:00 a 91.0 85.6 85.6 85.8 85.4 60 70.1 0.0 0.0 --- 0.00 29.907
08/04/2005 10:10 a 91.4 86.1 86.1 86.6 85.8 61 71.1 0.0 0.0 --- 0.00 29.906
08/04/2005 10:20 a 91.8 86.8 86.8 86.9 86.6 56 69.2 0.0 0.0 --- 0.00 29.905
08/04/2005 10:30 a 92.1 87.1 87.1 87.3 86.9 57 70.0 0.0 0.0 --- 0.00 29.907
08/04/2005 10:40 a 93.5 87.7 87.7 88.0 87.3 55 69.5 0.0 0.0 --- 0.00 29.906
08/04/2005 10:50 a 93.5 88.2 88.2 88.5 87.9 55 70.0 0.0 0.0 --- 0.00 29.903
08/04/2005 11:00 a 94.6 88.7 88.7 88.8 88.5 52 68.8 0.0 0.0 --- 0.00 29.905
08/04/2005 11:10 a 94.3 88.9 88.9 89.2 88.8 51 68.4 0.0 0.0 --- 0.00 29.904
08/04/2005 11:20 a 94.3 89.3 89.3 89.4 89.2 51 68.8 0.0 0.0 --- 0.00 29.899
08/04/2005 11:30 a 95.0 89.5 89.5 89.7 89.4 50 68.4 0.0 0.0 --- 0.00 29.899
08/04/2005 11:40 a 94.7 89.9 89.9 90.2 89.7 49 68.2 0.0 0.0 --- 0.00 29.895
08/04/2005 11:50 a 95.4 90.5 90.5 90.7 90.2 48 68.1 0.0 0.0 --- 0.00 29.895
08/04/2005 12:00 p 95.1 91.0 91.0 91.2 90.7 47 68.0 0.0 0.0 --- 0.00 29.891
08/04/2005 12:10 p 94.8 91.3 91.3 91.5 91.2 46 67.6 0.0 0.0 --- 0.00 29.890
08/04/2005 12:20 p 95.2 92.0 92.0 92.5 91.5 43 66.3 0.0 0.0 --- 0.00 29.892
08/04/2005 12:30 p 97.6 92.9 92.9 93.2 92.5 44 67.8 0.0 0.0 --- 0.00 29.887
08/04/2005 12:40 p 98.8 93.6 93.6 94.1 93.2 42 67.1 0.0 0.0 --- 0.00 29.886
08/04/2005 12:50 p 99.2 94.2 94.2 94.4 94.1 43 68.3 0.0 0.0 --- 0.00 29.884
08/04/2005 1:00 p 100.5 94.5 94.5 94.7 94.4 43 68.6 0.0 0.0 --- 0.00 29.880
08/04/2005 1:10 p 100.0 94.8 94.8 94.9 94.7 42 68.1 0.0 0.0 --- 0.00 29.880
08/04/2005 1:20 p 99.5 94.6 94.6 94.7 94.3 41 67.3 0.0 0.0 --- 0.00 29.873
08/04/2005 1:30 p 99.6 93.9 93.9 94.3 93.7 44 68.7 0.0 0.0 --- 0.00 29.868
08/04/2005 1:40 p 97.6 94.2 94.2 94.7 93.7 39 65.5 0.0 0.0 --- 0.00 29.865
08/04/2005 1:50 p 97.4 95.3 95.3 95.9 94.7 36 64.1 0.0 0.0 --- 0.00 29.860
08/04/2005 2:00 p 98.2 96.1 96.1 96.3 95.9 33 62.4 0.0 3.0 SSE 0.00 29.863
08/04/2005 2:10 p 98.6 96.3 96.3 96.4 96.2 34 63.4 0.0 3.0 SE 0.00 29.860
08/04/2005 2:20 p 99.8 95.9 95.9 96.3 95.5 37 65.5 0.0 4.0 SE 0.00 29.858
08/04/2005 2:30 p 99.4 95.6 95.6 95.7 95.5 36 64.4 0.0 2.0 SE 0.00 29.853
08/04/2005 2:40 p 99.0 96.0 96.0 96.2 95.7 35 64.0 0.0 2.0 SE 0.00 29.846
08/04/2005 2:50 p 99.4 96.2 96.2 96.3 96.2 36 64.9 0.0 4.0 SE 0.00 29.846
08/04/2005 3:00 p 99.0 96.1 96.1 96.3 96.0 35 64.0 0.0 4.0 SE 0.00 29.842
08/04/2005 3:10 p 98.6 96.1 96.1 96.2 96.0 34 63.2 0.0 3.0 SE 0.00 29.848
08/04/2005 3:20 p 97.4 96.3 96.3 96.5 96.2 31 60.8 0.0 3.0 SE 0.00 29.847
08/04/2005 3:30 p 99.8 96.6 96.6 96.8 96.5 32 61.9 0.0 2.0 ESE 0.00 29.846
08/04/2005 3:40 p 99.4 96.9 96.9 97.0 96.8 31 61.3 0.0 1.0 E 0.00 29.850
08/04/2005 3:50 p 100.2 97.0 97.0 97.1 97.0 33 63.2 0.0 0.0 --- 0.00 29.844
08/04/2005 4:00 p 100.2 96.8 96.8 97.1 96.2 33 63.0 0.0 1.0 SSE 0.00 29.843
08/04/2005 4:10 p 98.2 95.5 95.5 96.2 94.8 33 61.8 0.0 3.0 SE 0.00 29.846
08/04/2005 4:20 p 96.4 94.4 94.4 94.8 93.9 36 63.4 0.0 0.0 --- 0.00 29.846
08/04/2005 4:30 p 97.2 93.5 93.5 93.9 93.2 38 64.1 0.0 0.0 --- 0.00 29.845
08/04/2005 4:40 p 96.4 92.9 92.9 93.2 92.6 41 65.8 0.0 0.0 --- 0.00 29.846
08/04/2005 4:50 p 96.4 92.4 92.4 92.6 92.1 46 68.6 0.0 0.0 --- 0.00 29.849
08/04/2005 5:00 p 94.8 91.7 91.7 92.1 91.4 42 65.4 0.0 0.0 --- 0.00 29.846
08/04/2005 5:10 p 94.8 91.5 91.5 91.6 91.4 42 65.2 0.0 0.0 --- 0.00 29.844
08/04/2005 5:20 p 94.4 91.7 91.7 91.9 91.6 41 64.7 0.0 0.0 --- 0.00 29.840
08/04/2005 5:30 p 95.2 92.0 92.0 92.1 91.9 43 66.3 0.0 0.0 --- 0.00 29.837
08/04/2005 5:40 p 96.4 92.1 92.1 92.2 92.1 46 68.4 0.0 0.0 --- 0.00 29.835
08/04/2005 5:50 p 98.6 91.9 91.9 92.3 91.5 51 71.2 0.0 1.0 NNE 0.00 29.831
08/04/2005 6:00 p 97.0 91.0 91.0 91.5 90.5 52 70.9 0.0 3.0 NNW 0.00 29.834
08/04/2005 6:10 p 95.4 90.0 90.0 90.4 89.7 51 69.5 0.0 3.0 N 0.00 29.839
08/04/2005 6:20 p 94.3 89.4 89.4 89.7 89.0 51 68.9 1.0 3.0 N 0.00 29.837
08/04/2005 6:30 p 94.9 88.8 88.8 89.1 88.6 53 69.5 0.0 2.0 NW 0.00 29.836
08/04/2005 6:40 p 93.2 88.4 88.4 88.6 88.2 54 69.7 0.0 2.0 NNW 0.00 29.836
08/04/2005 6:50 p 93.2 88.0 88.0 88.2 87.7 54 69.3 0.0 0.0 --- 0.00 29.837
08/04/2005 7:00 p 93.5 87.5 87.5 87.7 87.3 55 69.4 0.0 0.0 --- 0.00 29.836
08/04/2005 7:10 p 91.5 87.0 87.0 87.3 86.7 55 68.9 0.0 1.0 NNW 0.00 29.841
08/04/2005 7:20 p 91.8 86.5 86.5 86.7 86.3 56 69.0 0.0 0.0 --- 0.00 29.847
08/04/2005 7:30 p 89.5 86.0 86.0 86.3 85.7 55 68.0 0.0 0.0 --- 0.00 29.846
08/04/2005 7:40 p 89.8 85.5 85.5 85.8 85.3 56 68.0 0.0 0.0 --- 0.00 29.852
08/04/2005 7:50 p 88.6 85.1 85.1 85.3 84.8 58 68.7 0.0 0.0 --- 0.00 29.855
08/04/2005 8:00 p 88.8 84.5 84.5 84.8 84.1 59 68.6 0.0 0.0 --- 0.00 29.857
08/04/2005 8:10 p 86.9 83.8 83.8 84.1 83.5 59 68.0 0.0 0.0 --- 0.00 29.863
08/04/2005 8:20 p 85.0 83.3 83.3 83.6 83.1 60 68.0 0.0 0.0 --- 0.00 29.863
08/04/2005 8:30 p 85.4 82.9 82.9 83.1 82.7 61 68.1 0.0 0.0 --- 0.00 29.862
08/04/2005 8:40 p 85.4 82.6 82.6 82.7 82.4 61 67.8 0.0 0.0 --- 0.00 29.869
08/04/2005 8:50 p 84.6 82.2 82.2 82.4 82.0 62 67.9 0.0 0.0 --- 0.00 29.873
08/04/2005 9:00 p 84.9 81.8 81.8 82.0 81.6 63 68.0 0.0 0.0 --- 0.00 29.876
08/04/2005 9:10 p 85.2 81.5 81.5 81.7 81.4 64 68.2 0.0 0.0 --- 0.00 29.878
08/04/2005 9:20 p 83.8 81.3 81.3 81.4 81.1 64 68.0 0.0 0.0 --- 0.00 29.881
08/04/2005 9:30 p 84.2 80.9 80.9 81.1 80.6 66 68.5 0.0 0.0 --- 0.00 29.882
08/04/2005 9:40 p 82.7 80.4 80.4 80.6 80.2 67 68.4 0.0 0.0 --- 0.00 29.882
08/04/2005 9:50 p 82.8 80.0 80.0 80.2 79.8 68 68.5 0.0 0.0 --- 0.00 29.882
08/04/2005 10:00 p 82.9 79.6 79.6 79.8 79.5 69 68.5 0.0 0.0 --- 0.00 29.884
08/04/2005 10:10 p 81.0 79.3 79.3 79.5 79.1 70 68.7 0.0 0.0 --- 0.00 29.883
08/04/2005 10:20 p 81.4 78.8 78.8 79.1 78.5 72 69.0 0.0 0.0 --- 0.00 29.886
08/04/2005 10:30 p 80.6 78.3 78.3 78.5 78.0 73 68.9 0.0 0.0 --- 0.00 29.883
08/04/2005 10:40 p 80.6 77.8 77.8 78.0 77.7 73 68.5 0.0 0.0 --- 0.00 29.878
08/04/2005 10:50 p 81.0 77.5 77.5 77.7 77.3 75 69.0 0.0 0.0 --- 0.00 29.877
08/04/2005 11:00 p 80.2 77.1 77.1 77.3 76.9 76 69.0 0.0 0.0 --- 0.00 29.877
08/04/2005 11:10 p 80.4 76.8 76.8 76.9 76.6 77 69.0 0.0 0.0 --- 0.00 29.873
08/04/2005 11:20 p 80.6 76.5 76.5 76.6 76.4 78 69.1 0.0 0.0 --- 0.00 29.872
08/04/2005 11:30 p 78.8 76.4 76.4 76.4 76.3 78 69.0 0.0 0.0 --- 0.00 29.874
08/04/2005 11:40 p 78.8 76.4 76.4 76.4 76.3 78 69.0 0.0 0.0 --- 0.00 29.874
08/04/2005 11:50 p 78.9 76.2 76.2 76.3 76.1 79 69.2 0.0 0.0 --- 0.00 29.871
08/05/2005 12:00 a 79.0 76.0 76.0 76.1 75.8 80 69.4 0.0 0.0 --- 0.00 29.872
08/05/2005 12:10 a 79.0 75.7 75.7 75.8 75.6 80 69.1 0.0 0.0 --- 0.00 29.871
08/05/2005 12:20 a 79.1 75.6 75.6 75.6 75.4 81 69.4 0.0 0.0 --- 0.00 29.870
08/05/2005 12:30 a 77.1 75.4 75.4 75.5 75.3 81 69.2 0.0 0.0 --- 0.00 29.869
08/05/2005 12:40 a 77.3 75.2 75.2 75.3 75.0 83 69.7 0.0 0.0 --- 0.00 29.870
08/05/2005 12:50 a 77.3 74.9 74.9 75.0 74.9 83 69.4 0.0 0.0 --- 0.00 29.868
08/05/2005 1:00 a 77.3 74.9 74.9 74.9 74.9 83 69.4 0.0 0.0 --- 0.00 29.869
08/05/2005 1:10 a 77.4 74.8 74.8 74.9 74.6 84 69.6 0.0 0.0 --- 0.00 29.870
08/05/2005 1:20 a 77.4 74.5 74.5 74.7 74.4 84 69.4 0.0 0.0 --- 0.00 29.874
08/05/2005 1:30 a 76.0 74.4 74.4 74.5 74.3 85 69.6 0.0 0.0 --- 0.00 29.872
08/05/2005 1:40 a 76.0 74.2 74.2 74.3 74.1 86 69.7 0.0 0.0 --- 0.00 29.873
08/05/2005 1:50 a 76.0 74.1 74.1 74.1 74.0 86 69.6 0.0 0.0 --- 0.00 29.876
08/05/2005 2:00 a 76.0 73.9 73.9 74.0 73.9 86 69.5 0.0 0.0 --- 0.00 29.872
08/05/2005 2:10 a 76.0 73.9 73.9 73.9 73.9 87 69.8 0.0 0.0 --- 0.00 29.872
08/05/2005 2:20 a 76.0 73.8 73.8 73.9 73.8 87 69.7 0.0 0.0 --- 0.00 29.876
08/05/2005 2:30 a 76.0 73.7 73.7 73.8 73.7 88 69.9 0.0 0.0 --- 0.00 29.877
08/05/2005 2:40 a 76.0 73.7 73.7 73.7 73.7 88 69.9 0.0 0.0 --- 0.00 29.878
08/05/2005 2:50 a 76.0 73.6 73.6 73.7 73.6 88 69.8 0.0 0.0 --- 0.00 29.875
08/05/2005 3:00 a 76.0 73.6 73.6 73.6 73.5 89 70.2 0.0 0.0 --- 0.00 29.879
08/05/2005 3:10 a 76.0 73.5 73.5 73.6 73.5 89 70.1 0.0 0.0 --- 0.00 29.877
08/05/2005 3:20 a 76.0 73.5 73.5 73.5 73.5 90 70.4 0.0 0.0 --- 0.00 29.877
08/05/2005 3:30 a 76.0 73.5 73.5 73.5 73.5 90 70.4 0.0 0.0 --- 0.00 29.878
08/05/2005 3:40 a 76.2 73.5 73.5 73.6 73.5 91 70.7 0.0 0.0 --- 0.00 29.880
08/05/2005 3:50 a 76.2 73.6 73.6 73.7 73.6 91 70.8 0.0 0.0 --- 0.00 29.878
08/05/2005 4:00 a 76.0 73.6 73.6 73.7 73.6 90 70.5 0.0 0.0 --- 0.00 29.878
08/05/2005 4:10 a 76.2 73.6 73.6 73.7 73.6 91 70.8 0.0 0.0 --- 0.00 29.879
08/05/2005 4:20 a 76.4 73.6 73.6 73.7 73.6 92 71.1 0.0 0.0 --- 0.00 29.881
08/05/2005 4:30 a 76.4 73.6 73.6 73.6 73.5 92 71.1 0.0 0.0 --- 0.00 29.881
08/05/2005 4:40 a 76.4 73.5 73.5 73.6 73.5 92 71.0 0.0 0.0 --- 0.00 29.879
08/05/2005 4:50 a 76.4 73.5 73.5 73.6 73.5 92 71.0 0.0 0.0 --- 0.00 29.881
08/05/2005 5:00 a 76.6 73.5 73.5 73.5 73.4 93 71.4 0.0 0.0 --- 0.00 29.881
08/05/2005 5:10 a 75.4 73.4 73.4 73.5 73.3 92 70.9 0.0 0.0 --- 0.00 29.884
08/05/2005 5:20 a 75.6 73.3 73.3 73.4 73.3 93 71.2 0.0 0.0 --- 0.00 29.886
08/05/2005 5:30 a 75.6 73.3 73.3 73.3 73.2 93 71.2 0.0 0.0 --- 0.00 29.883
08/05/2005 5:40 a 75.6 73.2 73.2 73.3 73.2 93 71.1 0.0 0.0 --- 0.00 29.883
08/05/2005 5:50 a 75.8 73.2 73.2 73.2 73.2 94 71.4 0.0 0.0 --- 0.00 29.886
08/05/2005 6:00 a 75.8 73.3 73.3 73.4 73.2 94 71.5 0.0 0.0 --- 0.00 29.887
08/05/2005 6:10 a 75.8 73.4 73.4 73.5 73.3 94 71.6 0.0 0.0 --- 0.00 29.887
08/05/2005 6:20 a 77.0 73.6 73.6 73.7 73.5 95 72.1 0.0 0.0 --- 0.00 29.885
08/05/2005 6:30 a 76.8 73.9 73.9 74.1 73.7 94 72.1 0.0 0.0 --- 0.00 29.888
08/05/2005 6:40 a 76.8 74.3 74.3 74.5 74.1 94 72.5 0.0 0.0 --- 0.00 29.892
08/05/2005 6:50 a 78.3 74.6 74.6 74.8 74.4 93 72.4 0.0 0.0 --- 0.00 29.892
08/05/2005 7:00 a 78.2 75.0 75.0 75.2 74.8 92 72.5 0.0 0.0 --- 0.00 29.895
08/05/2005 7:10 a 80.0 75.5 75.5 75.7 75.2 91 72.7 0.0 0.0 --- 0.00 29.899
08/05/2005 7:20 a 80.0 76.0 76.0 76.3 75.7 90 72.9 0.0 0.0 --- 0.00 29.899
08/05/2005 7:30 a 81.0 76.6 76.6 76.9 76.3 88 72.8 0.0 0.0 --- 0.00 29.895
08/05/2005 7:40 a 81.0 77.2 77.2 77.5 76.9 87 73.0 0.0 0.0 --- 0.00 29.896
08/05/2005 7:50 a 82.6 77.8 77.8 78.1 77.5 86 73.3 0.0 0.0 --- 0.00 29.895
08/05/2005 8:00 a 82.3 78.4 78.4 78.6 78.1 83 72.8 0.0 0.0 --- 0.00 29.893
08/05/2005 8:10 a 83.4 78.8 78.8 79.1 78.6 82 72.8 0.0 1.0 SSE 0.00 29.891
08/05/2005 8:20 a 83.2 79.3 79.3 79.5 79.0 81 73.0 0.0 1.0 SSE 0.00 29.893
08/05/2005 8:30 a 84.8 79.8 79.8 80.1 79.5 79 72.7 0.0 0.0 --- 0.00 29.888
08/05/2005 8:40 a 84.6 80.4 80.4 80.7 80.1 78 72.9 0.0 1.0 N 0.00 29.887
08/05/2005 8:50 a 86.2 81.1 81.1 81.4 80.8 76 72.8 0.0 0.0 --- 0.00 29.888
08/05/2005 9:00 a 88.0 81.7 81.7 82.0 81.4 75 73.0 0.0 0.0 --- 0.00 29.890
08/05/2005 9:10 a 87.6 82.2 82.2 82.4 82.0 73 72.7 0.0 1.0 NNE 0.00 29.890
08/05/2005 9:20 a 89.4 82.7 82.7 83.0 82.4 72 72.8 0.0 1.0 --- 0.00 29.890
08/05/2005 9:30 a 89.2 83.3 83.3 83.6 83.0 71 72.9 0.0 0.0 --- 0.00 29.888
08/05/2005 9:40 a 90.6 83.9 83.9 84.2 83.6 69 72.6 0.0 1.0 --- 0.00 29.884
08/05/2005 9:50 a 90.2 84.4 84.4 84.7 84.2 68 72.7 0.0 0.0 --- 0.00 29.884
08/05/2005 10:00 a 91.4 85.0 85.0 85.2 84.7 66 72.4 0.0 1.0 --- 0.00 29.885
08/05/2005 10:10 a 93.0 85.5 85.5 85.7 85.2 65 72.4 0.0 0.0 --- 0.00 29.881
08/05/2005 10:20 a 92.6 86.0 86.0 86.4 85.7 64 72.4 0.0 1.0 ENE 0.00 29.878
08/05/2005 10:30 a 93.8 86.6 86.6 86.9 86.4 62 72.0 0.0 1.0 N 0.00 29.878
08/05/2005 10:40 a 93.0 87.2 87.2 87.5 86.9 60 71.6 0.0 2.0 NW 0.00 29.876
08/05/2005 10:50 a 94.7 87.9 87.9 88.3 87.5 59 71.8 0.0 3.0 NW 0.00 29.873
08/05/2005 11:00 a 96.1 88.7 88.7 89.0 88.3 57 71.5 0.0 2.0 NW 0.00 29.872
08/05/2005 11:10 a 95.8 89.3 89.3 89.6 89.0 56 71.6 0.0 1.0 NW 0.00 29.872
08/05/2005 11:20 a 96.6 89.9 89.9 90.2 89.6 54 71.0 0.0 3.0 NW 0.00 29.871
08/05/2005 11:30 a 95.8 90.4 90.4 90.7 90.2 52 70.4 0.0 3.0 NW 0.00 29.870
08/05/2005 11:40 a 95.7 91.0 91.0 91.3 90.7 49 69.2 0.0 2.0 NNW 0.00 29.868
08/05/2005 11:50 a 97.2 91.5 91.5 91.8 91.3 48 69.1 0.0 3.0 NNW 0.00 29.869
08/05/2005 12:00 p 96.8 92.1 92.1 92.4 91.8 47 69.0 0.0 2.0 NW 0.00 29.865
08/05/2005 12:10 p 97.6 92.9 92.9 93.1 92.4 44 67.8 0.0 3.0 NW 0.00 29.864
08/05/2005 12:20 p 97.2 93.1 93.1 93.3 93.0 43 67.3 0.0 5.0 S 0.00 29.865
08/05/2005 12:30 p 99.2 93.5 93.5 93.7 93.3 43 67.7 1.0 4.0 ESE 0.00 29.863
08/05/2005 12:40 p 99.6 93.7 93.7 93.8 93.7 44 68.5 0.0 2.0 SSE 0.00 29.859
08/05/2005 12:50 p 99.6 93.8 93.8 93.9 93.8 44 68.6 0.0 2.0 W 0.00 29.859
08/05/2005 1:00 p 99.6 93.5 93.5 93.8 93.3 44 68.3 0.0 2.0 W 0.00 29.859
08/05/2005 1:10 p 98.0 93.0 93.0 93.3 92.7 45 68.5 0.0 2.0 NNW 0.00 29.856
08/05/2005 1:20 p 98.4 92.6 92.6 92.8 92.5 46 68.8 0.0 2.0 NW 0.00 29.851
08/05/2005 1:30 p 97.6 93.2 93.2 93.6 92.8 44 68.1 0.0 4.0 ESE 0.00 29.848
08/05/2005 1:40 p 99.6 93.5 93.5 93.6 93.4 44 68.3 0.0 5.0 SSE 0.00 29.846
08/05/2005 1:50 p 97.2 93.0 93.0 93.4 92.6 43 67.2 0.0 2.0 SSE 0.00 29.851
08/05/2005 2:00 p 97.6 92.8 92.8 93.2 92.6 44 67.7 0.0 4.0 ESE 0.00 29.849
08/05/2005 2:10 p 97.2 93.3 93.3 93.4 93.2 43 67.5 1.0 5.0 SE 0.00 29.851
08/05/2005 2:20 p 97.2 93.1 93.1 93.3 92.7 43 67.3 1.0 5.0 SE 0.00 29.842
08/05/2005 2:30 p 97.6 92.5 92.5 92.7 92.4 44 67.4 1.0 3.0 NW 0.00 29.839
08/05/2005 2:40 p 96.0 92.3 92.3 92.4 92.3 45 67.9 0.0 5.0 WNW 0.00 29.839
08/05/2005 2:50 p 96.4 91.9 91.9 92.3 91.6 46 68.2 1.0 6.0 SE 0.00 29.833
08/05/2005 3:00 p 95.1 91.3 91.3 91.5 91.1 47 68.3 1.0 4.0 SE 0.00 29.836
08/05/2005 3:10 p 95.4 91.0 91.0 91.1 90.9 48 68.6 1.0 4.0 SE 0.00 29.836
08/05/2005 3:20 p 96.0 90.7 90.7 90.9 90.6 50 69.5 0.0 5.0 SE 0.00 29.836
08/05/2005 3:30 p 95.0 90.4 90.4 90.6 90.3 50 69.2 0.0 5.0 SE 0.00 29.838
08/05/2005 3:40 p 93.8 90.1 90.1 90.3 89.8 46 66.5 0.0 5.0 SE 0.00 29.844
08/05/2005 3:50 p 93.5 89.7 89.7 89.9 89.5 45 65.6 0.0 5.0 WSW 0.00 29.844
08/05/2005 4:00 p 92.4 89.4 89.4 89.6 89.2 46 65.9 0.0 4.0 ENE 0.00 29.844
08/05/2005 4:10 p 93.2 89.1 89.1 89.2 88.9 48 66.9 0.0 2.0 NW 0.00 29.847
08/05/2005 4:20 p 93.2 88.9 88.9 88.9 88.8 48 66.7 0.0 3.0 SSE 0.00 29.849
08/05/2005 4:30 p 94.0 88.6 88.6 88.8 88.4 50 67.6 0.0 3.0 NNW 0.00 29.850
08/05/2005 4:40 p 92.6 88.3 88.3 88.5 88.1 52 68.5 0.0 2.0 E 0.00 29.855
08/05/2005 4:50 p 93.2 88.1 88.1 88.2 88.0 54 69.4 0.0 0.0 --- 0.00 29.849
08/05/2005 5:10 p 93.2 87.7 87.7 87.8 87.7 54 69.0 0.0 2.0 E 0.00 29.843
08/05/2005 5:20 p 93.5 87.7 87.7 87.7 87.7 55 69.5 0.0 1.0 --- 0.00 29.841
08/05/2005 5:30 p 93.5 87.7 87.7 87.7 87.6 55 69.5 0.0 0.0 --- 0.00 29.841
08/05/2005 5:40 p 90.0 87.4 87.4 87.7 86.8 50 66.5 2.0 8.0 SE 0.00 29.849
08/05/2005 5:50 p 88.9 86.1 86.1 86.7 85.5 53 67.0 1.0 4.0 ESE 0.00 29.854
08/05/2005 6:00 p 87.8 85.1 85.1 85.5 84.8 54 66.6 0.0 2.0 ESE 0.00 29.856
08/05/2005 6:10 p 88.0 84.5 84.5 84.8 84.2 55 66.6 0.0 3.0 ESE 0.00 29.860
08/05/2005 6:20 p 86.7 84.0 84.0 84.2 83.8 57 67.1 0.0 1.0 ESE 0.00 29.859
08/05/2005 6:30 p 86.8 83.6 83.6 83.8 83.4 58 67.3 0.0 2.0 E 0.00 29.864
08/05/2005 6:40 p 85.0 83.2 83.2 83.4 83.0 59 67.4 0.0 1.0 --- 0.00 29.864
08/05/2005 6:50 p 85.0 82.8 82.8 83.0 82.7 59 67.0 0.0 1.0 E 0.00 29.868
08/05/2005 7:00 p 85.0 82.6 82.6 82.7 82.5 60 67.3 0.0 0.0 --- 0.00 29.869
08/05/2005 7:10 p 84.0 82.4 82.4 82.5 82.2 60 67.1 0.0 0.0 --- 0.00 29.875
08/05/2005 7:20 p 84.3 82.1 82.1 82.2 82.0 61 67.3 0.0 0.0 --- 0.00 29.875
08/05/2005 7:30 p 84.3 81.8 81.8 82.0 81.6 61 67.0 0.0 2.0 E 0.00 29.884
08/05/2005 7:40 p 84.3 81.5 81.5 81.7 81.4 61 66.8 0.0 0.0 --- 0.00 29.881
08/05/2005 7:50 p 83.0 81.4 81.4 81.5 81.3 60 66.2 0.0 2.0 E 0.00 29.884
08/05/2005 8:00 p 82.8 81.3 81.3 81.4 81.3 59 65.6 0.0 2.0 E 0.00 29.890
08/05/2005 8:10 p 82.8 81.3 81.3 81.3 81.2 59 65.6 0.0 0.0 --- 0.00 29.891
08/05/2005 8:20 p 82.8 81.1 81.1 81.2 81.0 59 65.4 0.0 0.0 --- 0.00 29.891
08/05/2005 8:30 p 83.0 81.0 81.0 81.0 80.8 60 65.8 0.0 2.0 E 0.00 29.900
08/05/2005 8:40 p 83.2 80.7 80.7 80.8 80.5 61 66.0 0.0 1.0 E 0.00 29.904
08/05/2005 8:50 p 82.2 80.4 80.4 80.5 80.3 62 66.2 0.0 0.0 --- 0.00 29.907
08/05/2005 9:00 p 82.3 80.2 80.2 80.3 80.0 63 66.5 0.0 0.0 --- 0.00 29.906
08/05/2005 9:10 p 82.5 79.9 79.9 80.0 79.7 65 67.1 0.0 0.0 --- 0.00 29.913
08/05/2005 9:20 p 81.0 79.4 79.4 79.6 79.1 66 67.1 0.0 0.0 --- 0.00 29.914
08/05/2005 9:30 p 81.0 78.9 78.9 79.1 78.7 67 67.0 0.0 0.0 --- 0.00 29.914
08/05/2005 9:40 p 81.0 78.5 78.5 78.7 78.3 67 66.6 0.0 0.0 --- 0.00 29.914
08/05/2005 9:50 p 79.7 78.3 78.3 78.4 78.2 67 66.5 0.0 0.0 --- 0.00 29.915
08/05/2005 10:00 p 79.8 78.1 78.1 78.2 78.0 68 66.7 0.0 0.0 --- 0.00 29.922
08/05/2005 10:10 p 79.9 77.9 77.9 78.0 77.7 69 66.9 0.0 0.0 --- 0.00 29.922
08/05/2005 10:20 p 80.0 77.5 77.5 77.7 77.4 70 67.0 0.0 0.0 --- 0.00 29.928
08/05/2005 10:30 p 79.0 77.3 77.3 77.4 77.1 70 66.8 0.0 0.0 --- 0.00 29.929
08/05/2005 10:40 p 79.0 76.9 76.9 77.1 76.9 70 66.4 0.0 0.0 --- 0.00 29.931
08/05/2005 10:50 p 78.8 76.8 76.8 76.9 76.7 69 65.9 0.0 0.0 --- 0.00 29.930
08/05/2005 11:00 p 78.8 76.6 76.6 76.7 76.6 69 65.7 0.0 0.0 --- 0.00 29.931
08/05/2005 11:10 p 78.8 76.6 76.6 76.7 76.6 69 65.7 0.0 0.0 --- 0.00 29.930
08/05/2005 11:20 p 78.6 76.5 76.5 76.6 76.4 68 65.2 0.0 0.0 --- 0.00 29.930
08/05/2005 11:30 p 77.6 76.3 76.3 76.4 76.2 68 65.0 0.0 0.0 --- 0.00 29.932
08/05/2005 11:40 p 77.8 76.1 76.1 76.2 75.9 69 65.2 0.0 0.0 --- 0.00 29.935
08/05/2005 11:50 p 77.8 75.8 75.8 75.9 75.7 69 64.9 0.0 0.0 --- 0.00 29.940
08/06/2005 12:00 a 78.0 75.5 75.5 75.7 75.4 70 65.0 0.0 0.0 --- 0.00 29.943
08/06/2005 12:10 a 76.8 75.3 75.3 75.5 75.3 69 64.4 0.0 2.0 E 0.00 29.947
08/06/2005 12:20 a 77.4 75.5 75.5 75.7 75.3 67 63.8 0.0 1.0 E 0.00 29.950
08/06/2005 12:30 a 77.2 75.9 75.9 76.1 75.7 66 63.7 0.0 0.0 --- 0.00 29.955
08/06/2005 12:40 a 77.2 76.2 76.2 76.2 76.1 66 64.0 0.0 0.0 --- 0.00 29.960
08/06/2005 12:50 a 77.2 76.0 76.0 76.2 75.9 66 63.8 0.0 0.0 --- 0.00 29.964
08/06/2005 1:00 a 77.0 75.8 75.8 75.9 75.7 65 63.2 0.0 0.0 --- 0.00 29.966
08/06/2005 1:10 a 76.2 75.8 75.8 75.9 75.6 61 61.4 0.0 3.0 E 0.00 29.970
08/06/2005 1:20 a 76.0 76.3 76.3 76.6 76.0 58 60.5 0.0 2.0 E 0.00 29.971
08/06/2005 1:30 a 77.0 76.6 76.6 76.7 76.6 57 60.2 0.0 2.0 E 0.00 29.970
08/06/2005 1:40 a 77.0 76.6 76.6 76.7 76.6 55 59.2 0.0 3.0 ESE 0.00 29.970
08/06/2005 1:50 a 77.0 76.6 76.6 76.7 76.5 55 59.2 0.0 0.0 --- 0.00 29.964
08/06/2005 2:00 a 76.0 76.4 76.4 76.5 76.2 55 59.1 0.0 0.0 --- 0.00 29.962
08/06/2005 2:10 a 76.0 76.0 76.0 76.2 75.9 55 58.7 0.0 0.0 --- 0.00 29.963
08/06/2005 2:20 a 76.0 75.7 75.7 75.9 75.4 56 58.9 0.0 0.0 --- 0.00 29.962
08/06/2005 2:30 a 75.0 75.2 75.2 75.4 75.0 57 58.9 0.0 0.0 --- 0.00 29.961
08/06/2005 2:40 a 75.0 74.9 74.9 75.1 74.7 58 59.1 0.0 0.0 --- 0.00 29.965
08/06/2005 2:50 a 75.0 74.5 74.5 74.7 74.2 60 59.7 0.0 0.0 --- 0.00 29.964
08/06/2005 3:00 a 74.4 73.8 73.8 74.2 73.4 62 60.0 0.0 0.0 --- 0.00 29.963
08/06/2005 3:10 a 73.3 73.0 73.0 73.4 72.7 63 59.7 0.0 0.0 --- 0.00 29.962
08/06/2005 3:20 a 72.0 72.4 72.4 72.7 72.1 65 60.0 0.0 0.0 --- 0.00 29.963
08/06/2005 3:30 a 72.0 71.8 71.8 72.1 71.6 65 59.4 0.0 0.0 --- 0.00 29.961
08/06/2005 3:40 a 71.0 71.4 71.4 71.6 71.2 66 59.5 0.0 0.0 --- 0.00 29.959
08/06/2005 3:50 a 71.0 71.1 71.1 71.2 70.9 66 59.2 0.0 0.0 --- 0.00 29.958
08/06/2005 4:00 a 71.0 70.8 70.8 70.9 70.6 64 58.0 0.0 0.0 --- 0.00 29.960
08/06/2005 4:10 a 71.0 70.6 70.6 70.6 70.5 63 57.4 0.0 0.0 --- 0.00 29.958
08/06/2005 4:20 a 71.0 70.5 70.5 70.5 70.4 65 58.2 0.0 0.0 --- 0.00 29.960
08/06/2005 4:30 a 71.0 70.5 70.5 70.7 70.4 63 57.3 0.0 0.0 --- 0.00 29.960
08/06/2005 4:40 a 71.0 70.9 70.9 71.0 70.7 65 58.6 0.0 0.0 --- 0.00 29.960
08/06/2005 4:50 a 71.0 70.9 70.9 71.0 70.9 65 58.6 0.0 0.0 --- 0.00 29.965
08/06/2005 5:00 a 71.0 70.9 70.9 71.0 70.9 62 57.2 0.0 0.0 --- 0.00 29.968
08/06/2005 5:10 a 71.0 71.0 71.0 71.0 70.9 63 57.8 0.0 0.0 --- 0.00 29.969
08/06/2005 5:20 a 71.0 70.8 70.8 71.0 70.7 63 57.6 0.0 0.0 --- 0.00 29.973
08/06/2005 5:30 a 71.0 70.6 70.6 70.7 70.4 65 58.3 0.0 0.0 --- 0.00 29.977
08/06/2005 5:40 a 70.0 70.1 70.1 70.4 69.8 66 58.2 0.0 0.0 --- 0.00 29.976
08/06/2005 5:50 a 70.0 69.6 69.6 69.9 69.5 65 57.3 0.0 0.0 --- 0.00 29.978
08/06/2005 6:00 a 70.0 69.6 69.6 69.9 69.5 64 56.9 0.0 0.0 --- 0.00 29.983
08/06/2005 6:10 a 70.0 70.1 70.1 70.2 69.9 67 58.6 0.0 0.0 --- 0.00 29.983
08/06/2005 6:20 a 70.0 70.1 70.1 70.2 70.0 67 58.6 0.0 0.0 --- 0.00 29.987
08/06/2005 6:30 a 70.0 70.0 70.0 70.0 69.9 66 58.1 0.0 0.0 --- 0.00 29.989
08/06/2005 6:40 a 70.0 70.0 70.0 70.0 70.0 68 59.0 0.0 0.0 --- 0.00 29.993
08/06/2005 6:50 a 70.2 69.8 69.8 70.0 69.5 71 60.0 0.0 0.0 --- 0.00 29.995
08/06/2005 7:00 a 69.6 69.3 69.3 69.5 69.1 73 60.3 0.0 0.0 --- 0.00 29.998
08/06/2005 7:10 a 69.6 69.1 69.1 69.1 69.1 73 60.1 0.0 0.0 --- 0.00 29.998
08/06/2005 7:20 a 69.0 69.3 69.3 69.5 69.1 70 59.1 0.0 0.0 --- 0.00 30.004
08/06/2005 7:30 a 70.0 69.8 69.8 70.1 69.5 69 59.2 0.0 0.0 --- 0.00 30.006
08/06/2005 7:40 a 70.0 70.3 70.3 70.6 70.1 67 58.8 0.0 0.0 --- 0.00 30.008
08/06/2005 7:50 a 71.0 70.8 70.8 71.0 70.5 68 59.7 0.0 0.0 --- 0.00 30.012
08/06/2005 8:00 a 71.0 71.3 71.3 71.6 71.0 65 58.9 0.0 0.0 --- 0.00 30.011
08/06/2005 8:10 a 72.0 71.8 71.8 72.1 71.6 63 58.5 0.0 0.0 --- 0.00 30.013
08/06/2005 8:20 a 72.0 72.4 72.4 72.8 72.1 63 59.1 0.0 0.0 --- 0.00 30.015
08/06/2005 8:30 a 73.1 73.3 73.3 73.8 72.7 61 59.1 0.0 1.0 ESE 0.00 30.014
08/06/2005 8:40 a 75.0 74.5 74.5 75.2 73.8 59 59.2 0.0 2.0 ESE 0.00 30.012
08/06/2005 8:50 a 76.0 75.6 75.6 75.9 75.2 56 58.8 0.0 2.0 ESE 0.00 30.011
08/06/2005 9:00 a 76.0 76.2 76.2 76.4 76.0 55 58.9 0.0 0.0 --- 0.00 30.013
08/06/2005 9:10 a 77.0 76.5 76.5 76.5 76.4 56 59.7 0.0 1.0 --- 0.00 30.015
08/06/2005 9:20 a 77.0 76.6 76.6 76.6 76.5 54 58.7 0.0 3.0 ESE 0.00 30.014
08/06/2005 9:30 a 77.0 76.6 76.6 76.7 76.6 55 59.2 0.0 2.0 ESE 0.00 30.016
08/06/2005 9:40 a 77.0 76.8 76.8 76.8 76.7 55 59.4 0.0 2.0 ESE 0.00 30.018
08/06/2005 9:50 a 77.0 76.8 76.8 76.9 76.8 55 59.4 0.0 3.0 ESE 0.00 30.018
08/06/2005 10:00 a 77.0 77.1 77.1 77.4 76.9 55 59.7 0.0 2.0 ESE 0.00 30.016
08/06/2005 10:10 a 78.5 77.7 77.7 78.0 77.4 55 60.3 0.0 2.0 ESE 0.00 30.017
08/06/2005 10:20 a 78.3 78.1 78.1 78.2 77.9 53 59.6 0.0 1.0 ESE 0.00 30.019
08/06/2005 10:30 a 78.3 78.3 78.3 78.5 78.1 53 59.8 0.0 2.0 ESE 0.00 30.019
08/06/2005 10:40 a 80.0 78.5 78.5 78.6 78.5 55 61.0 0.0 1.0 ESE 0.00 30.014
08/06/2005 10:50 a 80.0 79.0 79.0 79.5 78.6 55 61.5 0.0 1.0 ESE 0.00 30.012
08/06/2005 11:00 a 80.4 79.8 79.8 80.0 79.5 52 60.6 0.0 1.0 ESE 0.00 30.008
08/06/2005 11:10 a 80.2 80.4 80.4 80.7 80.0 51 60.6 0.0 0.0 --- 0.00 30.005
08/06/2005 11:20 a 81.0 81.0 81.0 81.3 80.7 50 60.6 0.0 2.0 ESE 0.00 30.006
08/06/2005 11:30 a 82.9 81.5 81.5 81.7 81.3 49 60.5 1.0 3.0 ESE 0.00 30.005
08/06/2005 11:40 a 82.6 82.1 82.1 82.4 81.7 46 59.3 0.0 2.0 NNE 0.00 30.003
08/06/2005 11:50 a 84.4 82.5 82.5 82.7 82.3 47 60.3 0.0 1.0 NNE 0.00 30.001
08/06/2005 12:00 p 84.2 82.9 82.9 83.1 82.7 46 60.0 1.0 5.0 SE 0.00 30.000
08/06/2005 12:10 p 84.0 83.3 83.3 83.5 83.1 45 59.8 0.0 4.0 SE 0.00 29.994
08/06/2005 12:20 p 85.0 83.9 83.9 84.1 83.5 45 60.3 0.0 1.0 SE 0.00 29.989
08/06/2005 12:30 p 84.6 84.2 84.2 84.4 84.0 43 59.3 0.0 3.0 SE 0.00 29.986
08/06/2005 12:40 p 85.2 84.5 84.5 84.6 84.4 41 58.2 0.0 2.0 SSE 0.00 29.987
08/06/2005 12:50 p 84.4 84.2 84.2 84.4 84.0 42 58.6 0.0 2.0 SSE 0.00 29.985
08/06/2005 1:00 p 84.4 84.1 84.1 84.7 83.8 42 58.6 0.0 1.0 SSE 0.00 29.982
08/06/2005 1:10 p 85.6 85.6 85.6 86.3 84.7 38 57.1 0.0 3.0 SSE 0.00 29.977
08/06/2005 1:20 p 86.0 86.2 86.2 86.4 86.2 40 59.1 1.0 2.0 SE 0.00 29.975
08/06/2005 1:30 p 86.0 86.4 86.4 86.6 86.2 40 59.2 0.0 3.0 SE 0.00 29.971
08/06/2005 1:40 p 86.2 86.0 86.0 86.2 85.9 41 59.6 0.0 2.0 SE 0.00 29.967
08/06/2005 1:50 p 86.6 86.7 86.7 87.1 86.2 38 58.1 0.0 2.0 ESE 0.00 29.971
08/06/2005 2:00 p 86.4 87.2 87.2 87.3 87.1 37 57.8 0.0 2.0 ESE 0.00 29.966
08/06/2005 2:10 p 86.6 87.0 87.0 87.2 86.9 38 58.3 0.0 1.0 --- 0.00 29.964
08/06/2005 2:20 p 86.4 86.9 86.9 87.1 86.8 37 57.5 0.0 3.0 N 0.00 29.966
08/06/2005 2:30 p 86.2 86.9 86.9 87.0 86.8 36 56.8 0.0 3.0 E 0.00 29.962
08/06/2005 2:40 p 86.6 87.3 87.3 87.6 87.0 38 58.6 0.0 2.0 E 0.00 29.959
08/06/2005 2:50 p 86.8 88.0 88.0 88.4 87.5 34 56.1 0.0 1.0 E 0.00 29.955
08/06/2005 3:00 p 86.8 88.4 88.4 88.5 88.3 34 56.5 0.0 1.0 --- 0.00 29.952
08/06/2005 3:10 p 86.6 88.2 88.2 88.4 88.1 33 55.5 0.0 3.0 ESE 0.00 29.952
08/06/2005 3:20 p 86.6 88.2 88.2 88.2 88.0 33 55.5 0.0 4.0 ESE 0.00 29.947
08/06/2005 3:30 p 86.6 88.2 88.2 88.3 88.1 33 55.5 0.0 4.0 ESE 0.00 29.947
08/06/2005 3:40 p 86.6 88.2 88.2 88.3 88.2 33 55.5 0.0 3.0 ESE 0.00 29.945
08/06/2005 3:50 p 86.8 88.2 88.2 88.3 88.1 34 56.3 0.0 1.0 ESE 0.00 29.944
08/06/2005 4:00 p 86.4 88.4 88.4 88.5 88.2 32 54.8 0.0 1.0 ESE 0.00 29.942
08/06/2005 4:10 p 86.6 88.2 88.2 88.4 88.1 33 55.5 0.0 3.0 ESE 0.00 29.939
08/06/2005 4:20 p 87.4 88.1 88.1 88.2 87.9 37 58.6 0.0 2.0 ESE 0.00 29.945
08/06/2005 4:30 p 87.0 87.3 87.3 87.9 86.6 40 60.1 0.0 1.0 NNW 0.00 29.943
08/06/2005 4:40 p 86.2 86.3 86.3 86.6 86.1 41 59.9 0.0 2.0 NNW 0.00 29.938
08/06/2005 4:50 p 86.4 85.7 85.7 86.1 85.3 42 60.0 0.0 2.0 NNW 0.00 29.940
08/06/2005 6:00 p 82.6 82.1 82.1 82.2 82.1 46 59.3 0.0 1.0 N 0.00 -12.022
08/06/2005 6:10 p 82.8 82.1 82.1 82.1 82.0 48 60.5 0.0 1.0 N 0.00 29.952
08/06/2005 6:20 p 82.9 82.0 82.0 82.1 81.9 49 61.0 0.0 0.0 --- 0.00 29.954
08/06/2005 6:30 p 82.9 81.9 81.9 82.0 81.8 49 60.9 0.0 2.0 N 0.00 29.957
08/06/2005 6:40 p 83.0 81.7 81.7 81.8 81.6 50 61.3 0.0 0.0 ---